<?xml version="1.0" encoding="UTF-8" standalone="no" ?>
<gpx xmlns="http://www.topografix.com/GPX/1/1" xmlns:xsi="http://www.w3.org/2001/XMLSchema-instance" xsi:schemaLocation="http://www.topografix.com/GPX/1/1 http://www.topografix.com/GPX/1/1/gpx.xsd" version="1.1" creator="VisuGPX - https://www.visugpx.com">
  <metadata>
    <name>Randonnée du 26/06/2022 à 16:46</name>
  </metadata>
  <trk>
    <name><![CDATA[Randonnée du 26/06/2022 à 16:46]]></name>
    <extensions>
      <line xmlns="http://www.topografix.com/GPX/gpx_style/0/2">
        <color>0000FF</color>
        <width>4</width>
      </line>
    </extensions>
    <trkseg>
      <trkpt lat="44.95885" lon="2.35313">
        <ele>691</ele>
        <time>2022-06-26T17:51:33+02:00</time>
      </trkpt>
      <trkpt lat="44.95912" lon="2.35315">
        <ele>690</ele>
        <time>2022-06-26T17:52:05+02:00</time>
      </trkpt>
      <trkpt lat="44.95919" lon="2.35396">
        <ele>694</ele>
        <time>2022-06-26T17:53:52+02:00</time>
      </trkpt>
      <trkpt lat="44.95938" lon="2.35516">
        <ele>695</ele>
        <time>2022-06-26T17:55:42+02:00</time>
      </trkpt>
      <trkpt lat="44.95966" lon="2.35631">
        <ele>696</ele>
        <time>2022-06-26T17:57:31+02:00</time>
      </trkpt>
      <trkpt lat="44.95981" lon="2.35671">
        <ele>697</ele>
        <time>2022-06-26T17:58:19+02:00</time>
      </trkpt>
      <trkpt lat="44.95991" lon="2.35708">
        <ele>698</ele>
        <time>2022-06-26T17:59:01+02:00</time>
      </trkpt>
      <trkpt lat="44.9598" lon="2.35729">
        <ele>698</ele>
        <time>2022-06-26T17:59:22+02:00</time>
      </trkpt>
      <trkpt lat="44.95972" lon="2.35745">
        <ele>698</ele>
        <time>2022-06-26T17:59:37+02:00</time>
      </trkpt>
      <trkpt lat="44.96009" lon="2.35796">
        <ele>699</ele>
        <time>2022-06-26T18:00:46+02:00</time>
      </trkpt>
      <trkpt lat="44.96028" lon="2.35812">
        <ele>699</ele>
        <time>2022-06-26T18:01:12+02:00</time>
      </trkpt>
      <trkpt lat="44.96085" lon="2.35994">
        <ele>698</ele>
        <time>2022-06-26T18:03:53+02:00</time>
      </trkpt>
      <trkpt lat="44.96115" lon="2.36093">
        <ele>697</ele>
        <time>2022-06-26T18:05:20+02:00</time>
      </trkpt>
      <trkpt lat="44.96132" lon="2.36187">
        <ele>700</ele>
        <time>2022-06-26T18:07:10+02:00</time>
      </trkpt>
      <trkpt lat="44.96099" lon="2.36333">
        <ele>703</ele>
        <time>2022-06-26T18:09:44+02:00</time>
      </trkpt>
      <trkpt lat="44.96095" lon="2.36496">
        <ele>704</ele>
        <time>2022-06-26T18:12:07+02:00</time>
      </trkpt>
      <trkpt lat="44.96083" lon="2.3658">
        <ele>705</ele>
        <time>2022-06-26T18:13:27+02:00</time>
      </trkpt>
      <trkpt lat="44.9608" lon="2.3666">
        <ele>708</ele>
        <time>2022-06-26T18:15:03+02:00</time>
      </trkpt>
      <trkpt lat="44.9607" lon="2.36717">
        <ele>708</ele>
        <time>2022-06-26T18:15:51+02:00</time>
      </trkpt>
      <trkpt lat="44.96052" lon="2.36809">
        <ele>707</ele>
        <time>2022-06-26T18:17:08+02:00</time>
      </trkpt>
      <trkpt lat="44.95961" lon="2.36889">
        <ele>699</ele>
        <time>2022-06-26T18:19:11+02:00</time>
      </trkpt>
      <trkpt lat="44.95917" lon="2.36914">
        <ele>693</ele>
        <time>2022-06-26T18:20:05+02:00</time>
      </trkpt>
      <trkpt lat="44.95872" lon="2.36952">
        <ele>690</ele>
        <time>2022-06-26T18:21:04+02:00</time>
      </trkpt>
      <trkpt lat="44.95856" lon="2.36968">
        <ele>690</ele>
        <time>2022-06-26T18:21:26+02:00</time>
      </trkpt>
      <trkpt lat="44.958" lon="2.36975">
        <ele>692</ele>
        <time>2022-06-26T18:22:51+02:00</time>
      </trkpt>
      <trkpt lat="44.95701" lon="2.36939">
        <ele>699</ele>
        <time>2022-06-26T18:26:00+02:00</time>
      </trkpt>
      <trkpt lat="44.956" lon="2.36931">
        <ele>704</ele>
        <time>2022-06-26T18:28:47+02:00</time>
      </trkpt>
      <trkpt lat="44.95549" lon="2.36919">
        <ele>704</ele>
        <time>2022-06-26T18:29:46+02:00</time>
      </trkpt>
      <trkpt lat="44.95495" lon="2.36865">
        <ele>703</ele>
        <time>2022-06-26T18:31:02+02:00</time>
      </trkpt>
      <trkpt lat="44.95408" lon="2.36819">
        <ele>698</ele>
        <time>2022-06-26T18:32:48+02:00</time>
      </trkpt>
      <trkpt lat="44.95386" lon="2.36821">
        <ele>697</ele>
        <time>2022-06-26T18:33:14+02:00</time>
      </trkpt>
      <trkpt lat="44.9536" lon="2.36835">
        <ele>696</ele>
        <time>2022-06-26T18:33:46+02:00</time>
      </trkpt>
      <trkpt lat="44.95315" lon="2.36967">
        <ele>679</ele>
        <time>2022-06-26T18:35:45+02:00</time>
      </trkpt>
      <trkpt lat="44.95281" lon="2.36983">
        <ele>677</ele>
        <time>2022-06-26T18:36:26+02:00</time>
      </trkpt>
      <trkpt lat="44.95267" lon="2.37003">
        <ele>674</ele>
        <time>2022-06-26T18:36:49+02:00</time>
      </trkpt>
      <trkpt lat="44.95237" lon="2.37028">
        <ele>670</ele>
        <time>2022-06-26T18:37:29+02:00</time>
      </trkpt>
      <trkpt lat="44.95338" lon="2.37125">
        <ele>658</ele>
        <time>2022-06-26T18:39:49+02:00</time>
      </trkpt>
      <trkpt lat="44.95356" lon="2.37202">
        <ele>652</ele>
        <time>2022-06-26T18:40:54+02:00</time>
      </trkpt>
      <trkpt lat="44.95388" lon="2.3726">
        <ele>652</ele>
        <time>2022-06-26T18:41:53+02:00</time>
      </trkpt>
      <trkpt lat="44.9543" lon="2.37314">
        <ele>653</ele>
        <time>2022-06-26T18:43:09+02:00</time>
      </trkpt>
      <trkpt lat="44.95454" lon="2.37338">
        <ele>656</ele>
        <time>2022-06-26T18:44:13+02:00</time>
      </trkpt>
      <trkpt lat="44.95471" lon="2.37373">
        <ele>659</ele>
        <time>2022-06-26T18:45:18+02:00</time>
      </trkpt>
      <trkpt lat="44.95477" lon="2.37451">
        <ele>658</ele>
        <time>2022-06-26T18:46:22+02:00</time>
      </trkpt>
      <trkpt lat="44.95489" lon="2.37426">
        <ele>662</ele>
        <time>2022-06-26T18:47:27+02:00</time>
      </trkpt>
      <trkpt lat="44.95504" lon="2.37413">
        <ele>666</ele>
        <time>2022-06-26T18:48:29+02:00</time>
      </trkpt>
      <trkpt lat="44.95518" lon="2.37412">
        <ele>668</ele>
        <time>2022-06-26T18:49:06+02:00</time>
      </trkpt>
      <trkpt lat="44.95538" lon="2.37445">
        <ele>671</ele>
        <time>2022-06-26T18:50:12+02:00</time>
      </trkpt>
      <trkpt lat="44.95585" lon="2.37326">
        <ele>684</ele>
        <time>2022-06-26T18:54:16+02:00</time>
      </trkpt>
      <trkpt lat="44.95605" lon="2.3726">
        <ele>691</ele>
        <time>2022-06-26T18:56:26+02:00</time>
      </trkpt>
      <trkpt lat="44.95604" lon="2.37214">
        <ele>696</ele>
        <time>2022-06-26T18:57:55+02:00</time>
      </trkpt>
      <trkpt lat="44.95592" lon="2.37146">
        <ele>701</ele>
        <time>2022-06-26T18:59:43+02:00</time>
      </trkpt>
      <trkpt lat="44.95585" lon="2.37077">
        <ele>703</ele>
        <time>2022-06-26T19:01:00+02:00</time>
      </trkpt>
      <trkpt lat="44.95596" lon="2.36931">
        <ele>704</ele>
        <time>2022-06-26T19:03:09+02:00</time>
      </trkpt>
      <trkpt lat="44.95866" lon="2.37288">
        <ele>711</ele>
        <time>2022-06-26T19:11:25+02:00</time>
      </trkpt>
      <trkpt lat="44.95982" lon="2.37405">
        <ele>710</ele>
        <time>2022-06-26T19:14:08+02:00</time>
      </trkpt>
      <trkpt lat="44.95955" lon="2.37574">
        <ele>710</ele>
        <time>2022-06-26T19:16:28+02:00</time>
      </trkpt>
      <trkpt lat="44.95949" lon="2.37637">
        <ele>707</ele>
        <time>2022-06-26T19:17:20+02:00</time>
      </trkpt>
      <trkpt lat="44.95937" lon="2.37668">
        <ele>704</ele>
        <time>2022-06-26T19:17:49+02:00</time>
      </trkpt>
      <trkpt lat="44.95944" lon="2.37772">
        <ele>699</ele>
        <time>2022-06-26T19:19:14+02:00</time>
      </trkpt>
      <trkpt lat="44.95995" lon="2.37849">
        <ele>701</ele>
        <time>2022-06-26T19:20:59+02:00</time>
      </trkpt>
      <trkpt lat="44.96049" lon="2.37918">
        <ele>697</ele>
        <time>2022-06-26T19:22:22+02:00</time>
      </trkpt>
      <trkpt lat="44.96214" lon="2.38014">
        <ele>692</ele>
        <time>2022-06-26T19:25:47+02:00</time>
      </trkpt>
      <trkpt lat="44.96301" lon="2.37997">
        <ele>701</ele>
        <time>2022-06-26T19:29:00+02:00</time>
      </trkpt>
      <trkpt lat="44.96373" lon="2.37983">
        <ele>709</ele>
        <time>2022-06-26T19:31:45+02:00</time>
      </trkpt>
      <trkpt lat="44.96371" lon="2.37929">
        <ele>714</ele>
        <time>2022-06-26T19:33:21+02:00</time>
      </trkpt>
      <trkpt lat="44.96373" lon="2.37898">
        <ele>716</ele>
        <time>2022-06-26T19:34:07+02:00</time>
      </trkpt>
      <trkpt lat="44.96397" lon="2.37864">
        <ele>718</ele>
        <time>2022-06-26T19:35:06+02:00</time>
      </trkpt>
      <trkpt lat="44.96457" lon="2.37797">
        <ele>719</ele>
        <time>2022-06-26T19:36:43+02:00</time>
      </trkpt>
      <trkpt lat="44.96533" lon="2.37673">
        <ele>720</ele>
        <time>2022-06-26T19:39:06+02:00</time>
      </trkpt>
      <trkpt lat="44.96547" lon="2.3759">
        <ele>719</ele>
        <time>2022-06-26T19:40:15+02:00</time>
      </trkpt>
      <trkpt lat="44.96545" lon="2.37454">
        <ele>718</ele>
        <time>2022-06-26T19:42:06+02:00</time>
      </trkpt>
      <trkpt lat="44.96551" lon="2.37396">
        <ele>718</ele>
        <time>2022-06-26T19:42:53+02:00</time>
      </trkpt>
      <trkpt lat="44.96567" lon="2.37367">
        <ele>718</ele>
        <time>2022-06-26T19:43:22+02:00</time>
      </trkpt>
      <trkpt lat="44.96629" lon="2.37445">
        <ele>714</ele>
        <time>2022-06-26T19:44:57+02:00</time>
      </trkpt>
      <trkpt lat="44.96661" lon="2.37468">
        <ele>712</ele>
        <time>2022-06-26T19:45:39+02:00</time>
      </trkpt>
      <trkpt lat="44.96689" lon="2.37474">
        <ele>711</ele>
        <time>2022-06-26T19:46:11+02:00</time>
      </trkpt>
      <trkpt lat="44.96725" lon="2.37465">
        <ele>710</ele>
        <time>2022-06-26T19:46:53+02:00</time>
      </trkpt>
      <trkpt lat="44.96757" lon="2.37427">
        <ele>709</ele>
        <time>2022-06-26T19:47:40+02:00</time>
      </trkpt>
      <trkpt lat="44.96782" lon="2.37361">
        <ele>710</ele>
        <time>2022-06-26T19:48:52+02:00</time>
      </trkpt>
      <trkpt lat="44.96795" lon="2.37347">
        <ele>711</ele>
        <time>2022-06-26T19:49:21+02:00</time>
      </trkpt>
      <trkpt lat="44.9683" lon="2.3734">
        <ele>714</ele>
        <time>2022-06-26T19:50:32+02:00</time>
      </trkpt>
      <trkpt lat="44.96867" lon="2.37314">
        <ele>718</ele>
        <time>2022-06-26T19:52:00+02:00</time>
      </trkpt>
      <trkpt lat="44.9688" lon="2.3729">
        <ele>718</ele>
        <time>2022-06-26T19:52:25+02:00</time>
      </trkpt>
      <trkpt lat="44.96972" lon="2.37289">
        <ele>722</ele>
        <time>2022-06-26T19:54:52+02:00</time>
      </trkpt>
      <trkpt lat="44.97034" lon="2.37319">
        <ele>724</ele>
        <time>2022-06-26T19:56:27+02:00</time>
      </trkpt>
      <trkpt lat="44.9706" lon="2.3733">
        <ele>724</ele>
        <time>2022-06-26T19:56:58+02:00</time>
      </trkpt>
      <trkpt lat="44.97161" lon="2.37393">
        <ele>721</ele>
        <time>2022-06-26T19:59:05+02:00</time>
      </trkpt>
      <trkpt lat="44.97181" lon="2.37398">
        <ele>720</ele>
        <time>2022-06-26T19:59:28+02:00</time>
      </trkpt>
      <trkpt lat="44.97208" lon="2.3741">
        <ele>718</ele>
        <time>2022-06-26T20:00:00+02:00</time>
      </trkpt>
      <trkpt lat="44.97226" lon="2.37432">
        <ele>716</ele>
        <time>2022-06-26T20:00:27+02:00</time>
      </trkpt>
      <trkpt lat="44.97238" lon="2.37488">
        <ele>713</ele>
        <time>2022-06-26T20:01:15+02:00</time>
      </trkpt>
      <trkpt lat="44.97244" lon="2.375">
        <ele>711</ele>
        <time>2022-06-26T20:01:27+02:00</time>
      </trkpt>
      <trkpt lat="44.9728" lon="2.37501">
        <ele>709</ele>
        <time>2022-06-26T20:02:08+02:00</time>
      </trkpt>
      <trkpt lat="44.97304" lon="2.3749">
        <ele>708</ele>
        <time>2022-06-26T20:02:36+02:00</time>
      </trkpt>
      <trkpt lat="44.97343" lon="2.37498">
        <ele>706</ele>
        <time>2022-06-26T20:03:22+02:00</time>
      </trkpt>
      <trkpt lat="44.97358" lon="2.37485">
        <ele>707</ele>
        <time>2022-06-26T20:03:53+02:00</time>
      </trkpt>
      <trkpt lat="44.9737" lon="2.37467">
        <ele>707</ele>
        <time>2022-06-26T20:04:13+02:00</time>
      </trkpt>
      <trkpt lat="44.97384" lon="2.37467">
        <ele>707</ele>
        <time>2022-06-26T20:04:29+02:00</time>
      </trkpt>
      <trkpt lat="44.97419" lon="2.37391">
        <ele>707</ele>
        <time>2022-06-26T20:05:42+02:00</time>
      </trkpt>
      <trkpt lat="44.97461" lon="2.37327">
        <ele>704</ele>
        <time>2022-06-26T20:06:53+02:00</time>
      </trkpt>
      <trkpt lat="44.9748" lon="2.3728">
        <ele>702</ele>
        <time>2022-06-26T20:07:37+02:00</time>
      </trkpt>
      <trkpt lat="44.97497" lon="2.37217">
        <ele>701</ele>
        <time>2022-06-26T20:08:31+02:00</time>
      </trkpt>
      <trkpt lat="44.97508" lon="2.3718">
        <ele>700</ele>
        <time>2022-06-26T20:09:03+02:00</time>
      </trkpt>
      <trkpt lat="44.97518" lon="2.37158">
        <ele>697</ele>
        <time>2022-06-26T20:09:25+02:00</time>
      </trkpt>
      <trkpt lat="44.97619" lon="2.37068">
        <ele>687</ele>
        <time>2022-06-26T20:11:41+02:00</time>
      </trkpt>
      <trkpt lat="44.97639" lon="2.37055">
        <ele>683</ele>
        <time>2022-06-26T20:12:07+02:00</time>
      </trkpt>
      <trkpt lat="44.9765" lon="2.37056">
        <ele>681</ele>
        <time>2022-06-26T20:12:19+02:00</time>
      </trkpt>
      <trkpt lat="44.97658" lon="2.37093">
        <ele>679</ele>
        <time>2022-06-26T20:12:51+02:00</time>
      </trkpt>
      <trkpt lat="44.97663" lon="2.37159">
        <ele>678</ele>
        <time>2022-06-26T20:13:45+02:00</time>
      </trkpt>
      <trkpt lat="44.97675" lon="2.37187">
        <ele>676</ele>
        <time>2022-06-26T20:14:11+02:00</time>
      </trkpt>
      <trkpt lat="44.97719" lon="2.37219">
        <ele>672</ele>
        <time>2022-06-26T20:15:07+02:00</time>
      </trkpt>
      <trkpt lat="44.97738" lon="2.37219">
        <ele>669</ele>
        <time>2022-06-26T20:15:29+02:00</time>
      </trkpt>
      <trkpt lat="44.97755" lon="2.3721">
        <ele>667</ele>
        <time>2022-06-26T20:15:49+02:00</time>
      </trkpt>
      <trkpt lat="44.97793" lon="2.37168">
        <ele>665</ele>
        <time>2022-06-26T20:16:44+02:00</time>
      </trkpt>
      <trkpt lat="44.97801" lon="2.37163">
        <ele>664</ele>
        <time>2022-06-26T20:16:54+02:00</time>
      </trkpt>
      <trkpt lat="44.97816" lon="2.37161">
        <ele>664</ele>
        <time>2022-06-26T20:17:12+02:00</time>
      </trkpt>
      <trkpt lat="44.97825" lon="2.37168">
        <ele>665</ele>
        <time>2022-06-26T20:17:34+02:00</time>
      </trkpt>
      <trkpt lat="44.97829" lon="2.37182">
        <ele>667</ele>
        <time>2022-06-26T20:18:07+02:00</time>
      </trkpt>
      <trkpt lat="44.97829" lon="2.37208">
        <ele>671</ele>
        <time>2022-06-26T20:19:09+02:00</time>
      </trkpt>
      <trkpt lat="44.97834" lon="2.37215">
        <ele>672</ele>
        <time>2022-06-26T20:19:27+02:00</time>
      </trkpt>
      <trkpt lat="44.97855" lon="2.37224">
        <ele>671</ele>
        <time>2022-06-26T20:19:52+02:00</time>
      </trkpt>
      <trkpt lat="44.97927" lon="2.37276">
        <ele>669</ele>
        <time>2022-06-26T20:21:25+02:00</time>
      </trkpt>
      <trkpt lat="44.97951" lon="2.37288">
        <ele>667</ele>
        <time>2022-06-26T20:21:54+02:00</time>
      </trkpt>
      <trkpt lat="44.97965" lon="2.37302">
        <ele>666</ele>
        <time>2022-06-26T20:22:13+02:00</time>
      </trkpt>
      <trkpt lat="44.97991" lon="2.37299">
        <ele>663</ele>
        <time>2022-06-26T20:22:43+02:00</time>
      </trkpt>
      <trkpt lat="44.97997" lon="2.37304">
        <ele>663</ele>
        <time>2022-06-26T20:22:51+02:00</time>
      </trkpt>
      <trkpt lat="44.98011" lon="2.37341">
        <ele>664</ele>
        <time>2022-06-26T20:23:35+02:00</time>
      </trkpt>
      <trkpt lat="44.98023" lon="2.37352">
        <ele>665</ele>
        <time>2022-06-26T20:24:01+02:00</time>
      </trkpt>
      <trkpt lat="44.98065" lon="2.37314">
        <ele>669</ele>
        <time>2022-06-26T20:25:40+02:00</time>
      </trkpt>
      <trkpt lat="44.98098" lon="2.37291">
        <ele>675</ele>
        <time>2022-06-26T20:27:23+02:00</time>
      </trkpt>
      <trkpt lat="44.98119" lon="2.37276">
        <ele>680</ele>
        <time>2022-06-26T20:28:42+02:00</time>
      </trkpt>
      <trkpt lat="44.98148" lon="2.37275">
        <ele>685</ele>
        <time>2022-06-26T20:30:06+02:00</time>
      </trkpt>
      <trkpt lat="44.98168" lon="2.3727">
        <ele>689</ele>
        <time>2022-06-26T20:31:11+02:00</time>
      </trkpt>
      <trkpt lat="44.98202" lon="2.3728">
        <ele>693</ele>
        <time>2022-06-26T20:32:32+02:00</time>
      </trkpt>
      <trkpt lat="44.98232" lon="2.37295">
        <ele>697</ele>
        <time>2022-06-26T20:33:49+02:00</time>
      </trkpt>
      <trkpt lat="44.98274" lon="2.37308">
        <ele>704</ele>
        <time>2022-06-26T20:35:50+02:00</time>
      </trkpt>
      <trkpt lat="44.98275" lon="2.37344">
        <ele>702</ele>
        <time>2022-06-26T20:36:20+02:00</time>
      </trkpt>
      <trkpt lat="44.98281" lon="2.37371">
        <ele>702</ele>
        <time>2022-06-26T20:36:43+02:00</time>
      </trkpt>
      <trkpt lat="44.98284" lon="2.37402">
        <ele>701</ele>
        <time>2022-06-26T20:37:08+02:00</time>
      </trkpt>
      <trkpt lat="44.98293" lon="2.37496">
        <ele>697</ele>
        <time>2022-06-26T20:38:24+02:00</time>
      </trkpt>
      <trkpt lat="44.98285" lon="2.37559">
        <ele>693</ele>
        <time>2022-06-26T20:39:16+02:00</time>
      </trkpt>
      <trkpt lat="44.98266" lon="2.37629">
        <ele>687</ele>
        <time>2022-06-26T20:40:17+02:00</time>
      </trkpt>
      <trkpt lat="44.98229" lon="2.3779">
        <ele>677</ele>
        <time>2022-06-26T20:42:34+02:00</time>
      </trkpt>
      <trkpt lat="44.982" lon="2.37902">
        <ele>673</ele>
        <time>2022-06-26T20:44:10+02:00</time>
      </trkpt>
      <trkpt lat="44.98188" lon="2.37912">
        <ele>671</ele>
        <time>2022-06-26T20:44:26+02:00</time>
      </trkpt>
      <trkpt lat="44.98151" lon="2.3792">
        <ele>670</ele>
        <time>2022-06-26T20:45:08+02:00</time>
      </trkpt>
      <trkpt lat="44.98109" lon="2.37945">
        <ele>673</ele>
        <time>2022-06-26T20:46:31+02:00</time>
      </trkpt>
      <trkpt lat="44.98051" lon="2.38039">
        <ele>682</ele>
        <time>2022-06-26T20:49:45+02:00</time>
      </trkpt>
      <trkpt lat="44.98011" lon="2.38085">
        <ele>688</ele>
        <time>2022-06-26T20:51:45+02:00</time>
      </trkpt>
      <trkpt lat="44.97978" lon="2.38105">
        <ele>692</ele>
        <time>2022-06-26T20:53:08+02:00</time>
      </trkpt>
      <trkpt lat="44.9797" lon="2.38137">
        <ele>691</ele>
        <time>2022-06-26T20:53:35+02:00</time>
      </trkpt>
      <trkpt lat="44.9797" lon="2.38184">
        <ele>688</ele>
        <time>2022-06-26T20:54:13+02:00</time>
      </trkpt>
      <trkpt lat="44.97973" lon="2.38215">
        <ele>688</ele>
        <time>2022-06-26T20:54:38+02:00</time>
      </trkpt>
      <trkpt lat="44.97988" lon="2.38229">
        <ele>687</ele>
        <time>2022-06-26T20:54:59+02:00</time>
      </trkpt>
      <trkpt lat="44.98007" lon="2.38238">
        <ele>686</ele>
        <time>2022-06-26T20:55:21+02:00</time>
      </trkpt>
      <trkpt lat="44.98048" lon="2.38233">
        <ele>682</ele>
        <time>2022-06-26T20:56:08+02:00</time>
      </trkpt>
      <trkpt lat="44.98077" lon="2.38231">
        <ele>680</ele>
        <time>2022-06-26T20:56:41+02:00</time>
      </trkpt>
      <trkpt lat="44.98113" lon="2.38239">
        <ele>678</ele>
        <time>2022-06-26T20:57:23+02:00</time>
      </trkpt>
      <trkpt lat="44.98152" lon="2.38252">
        <ele>676</ele>
        <time>2022-06-26T20:58:09+02:00</time>
      </trkpt>
      <trkpt lat="44.98215" lon="2.38251">
        <ele>678</ele>
        <time>2022-06-26T20:59:42+02:00</time>
      </trkpt>
      <trkpt lat="44.98231" lon="2.38247">
        <ele>679</ele>
        <time>2022-06-26T21:00:11+02:00</time>
      </trkpt>
      <trkpt lat="44.98252" lon="2.3823">
        <ele>680</ele>
        <time>2022-06-26T21:00:49+02:00</time>
      </trkpt>
      <trkpt lat="44.9827" lon="2.38217">
        <ele>683</ele>
        <time>2022-06-26T21:01:43+02:00</time>
      </trkpt>
      <trkpt lat="44.98285" lon="2.38212">
        <ele>686</ele>
        <time>2022-06-26T21:02:31+02:00</time>
      </trkpt>
      <trkpt lat="44.98359" lon="2.38206">
        <ele>697</ele>
        <time>2022-06-26T21:05:48+02:00</time>
      </trkpt>
      <trkpt lat="44.98442" lon="2.38204">
        <ele>707</ele>
        <time>2022-06-26T21:09:06+02:00</time>
      </trkpt>
      <trkpt lat="44.98459" lon="2.38209">
        <ele>709</ele>
        <time>2022-06-26T21:09:47+02:00</time>
      </trkpt>
      <trkpt lat="44.9847" lon="2.38231">
        <ele>711</ele>
        <time>2022-06-26T21:10:29+02:00</time>
      </trkpt>
      <trkpt lat="44.98479" lon="2.38257">
        <ele>713</ele>
        <time>2022-06-26T21:11:13+02:00</time>
      </trkpt>
      <trkpt lat="44.98542" lon="2.38339">
        <ele>719</ele>
        <time>2022-06-26T21:13:52+02:00</time>
      </trkpt>
      <trkpt lat="44.9857" lon="2.38379">
        <ele>723</ele>
        <time>2022-06-26T21:15:19+02:00</time>
      </trkpt>
      <trkpt lat="44.98591" lon="2.38401">
        <ele>726</ele>
        <time>2022-06-26T21:16:20+02:00</time>
      </trkpt>
      <trkpt lat="44.98589" lon="2.38443">
        <ele>727</ele>
        <time>2022-06-26T21:17:04+02:00</time>
      </trkpt>
      <trkpt lat="44.98592" lon="2.38527">
        <ele>731</ele>
        <time>2022-06-26T21:18:54+02:00</time>
      </trkpt>
      <trkpt lat="44.98591" lon="2.38583">
        <ele>732</ele>
        <time>2022-06-26T21:19:50+02:00</time>
      </trkpt>
      <trkpt lat="44.98561" lon="2.38707">
        <ele>725</ele>
        <time>2022-06-26T21:21:36+02:00</time>
      </trkpt>
      <trkpt lat="44.98557" lon="2.38776">
        <ele>719</ele>
        <time>2022-06-26T21:22:32+02:00</time>
      </trkpt>
      <trkpt lat="44.98574" lon="2.38895">
        <ele>713</ele>
        <time>2022-06-26T21:24:10+02:00</time>
      </trkpt>
      <trkpt lat="44.98578" lon="2.38945">
        <ele>712</ele>
        <time>2022-06-26T21:24:51+02:00</time>
      </trkpt>
      <trkpt lat="44.98569" lon="2.39021">
        <ele>711</ele>
        <time>2022-06-26T21:25:54+02:00</time>
      </trkpt>
      <trkpt lat="44.98569" lon="2.39052">
        <ele>711</ele>
        <time>2022-06-26T21:26:19+02:00</time>
      </trkpt>
      <trkpt lat="44.98579" lon="2.39136">
        <ele>713</ele>
        <time>2022-06-26T21:27:49+02:00</time>
      </trkpt>
      <trkpt lat="44.98581" lon="2.39182">
        <ele>712</ele>
        <time>2022-06-26T21:28:26+02:00</time>
      </trkpt>
      <trkpt lat="44.98576" lon="2.39232">
        <ele>709</ele>
        <time>2022-06-26T21:29:07+02:00</time>
      </trkpt>
      <trkpt lat="44.98548" lon="2.39307">
        <ele>701</ele>
        <time>2022-06-26T21:30:16+02:00</time>
      </trkpt>
      <trkpt lat="44.98512" lon="2.3937">
        <ele>693</ele>
        <time>2022-06-26T21:31:21+02:00</time>
      </trkpt>
      <trkpt lat="44.98488" lon="2.39393">
        <ele>690</ele>
        <time>2022-06-26T21:31:54+02:00</time>
      </trkpt>
      <trkpt lat="44.98505" lon="2.39438">
        <ele>686</ele>
        <time>2022-06-26T21:32:36+02:00</time>
      </trkpt>
      <trkpt lat="44.98537" lon="2.39522">
        <ele>681</ele>
        <time>2022-06-26T21:33:53+02:00</time>
      </trkpt>
      <trkpt lat="44.98547" lon="2.3957">
        <ele>680</ele>
        <time>2022-06-26T21:34:34+02:00</time>
      </trkpt>
      <trkpt lat="44.98546" lon="2.39607">
        <ele>678</ele>
        <time>2022-06-26T21:35:04+02:00</time>
      </trkpt>
      <trkpt lat="44.98533" lon="2.39678">
        <ele>673</ele>
        <time>2022-06-26T21:36:03+02:00</time>
      </trkpt>
      <trkpt lat="44.98538" lon="2.39711">
        <ele>671</ele>
        <time>2022-06-26T21:36:30+02:00</time>
      </trkpt>
      <trkpt lat="44.98607" lon="2.39846">
        <ele>664</ele>
        <time>2022-06-26T21:38:45+02:00</time>
      </trkpt>
      <trkpt lat="44.98685" lon="2.39976">
        <ele>658</ele>
        <time>2022-06-26T21:41:03+02:00</time>
      </trkpt>
      <trkpt lat="44.98694" lon="2.40009">
        <ele>656</ele>
        <time>2022-06-26T21:41:32+02:00</time>
      </trkpt>
      <trkpt lat="44.98705" lon="2.40103">
        <ele>652</ele>
        <time>2022-06-26T21:42:48+02:00</time>
      </trkpt>
      <trkpt lat="44.9873" lon="2.40082">
        <ele>656</ele>
        <time>2022-06-26T21:44:03+02:00</time>
      </trkpt>
      <trkpt lat="44.98749" lon="2.40079">
        <ele>658</ele>
        <time>2022-06-26T21:44:45+02:00</time>
      </trkpt>
      <trkpt lat="44.98785" lon="2.40095">
        <ele>661</ele>
        <time>2022-06-26T21:45:59+02:00</time>
      </trkpt>
      <trkpt lat="44.98824" lon="2.40113">
        <ele>664</ele>
        <time>2022-06-26T21:47:17+02:00</time>
      </trkpt>
      <trkpt lat="44.98855" lon="2.40122">
        <ele>666</ele>
        <time>2022-06-26T21:48:14+02:00</time>
      </trkpt>
      <trkpt lat="44.989" lon="2.40131">
        <ele>669</ele>
        <time>2022-06-26T21:49:37+02:00</time>
      </trkpt>
      <trkpt lat="44.98936" lon="2.40123">
        <ele>673</ele>
        <time>2022-06-26T21:51:00+02:00</time>
      </trkpt>
      <trkpt lat="44.98976" lon="2.40128">
        <ele>676</ele>
        <time>2022-06-26T21:52:16+02:00</time>
      </trkpt>
      <trkpt lat="44.99004" lon="2.40119">
        <ele>680</ele>
        <time>2022-06-26T21:53:31+02:00</time>
      </trkpt>
      <trkpt lat="44.99052" lon="2.40091">
        <ele>685</ele>
        <time>2022-06-26T21:55:22+02:00</time>
      </trkpt>
      <trkpt lat="44.99082" lon="2.40099">
        <ele>687</ele>
        <time>2022-06-26T21:56:17+02:00</time>
      </trkpt>
      <trkpt lat="44.99117" lon="2.40115">
        <ele>688</ele>
        <time>2022-06-26T21:57:09+02:00</time>
      </trkpt>
      <trkpt lat="44.99231" lon="2.40105">
        <ele>695</ele>
        <time>2022-06-26T22:00:32+02:00</time>
      </trkpt>
      <trkpt lat="44.99256" lon="2.40103">
        <ele>696</ele>
        <time>2022-06-26T22:01:11+02:00</time>
      </trkpt>
      <trkpt lat="44.99277" lon="2.40087">
        <ele>694</ele>
        <time>2022-06-26T22:01:39+02:00</time>
      </trkpt>
      <trkpt lat="44.99367" lon="2.39949">
        <ele>687</ele>
        <time>2022-06-26T22:04:11+02:00</time>
      </trkpt>
      <trkpt lat="44.99377" lon="2.39912">
        <ele>685</ele>
        <time>2022-06-26T22:04:42+02:00</time>
      </trkpt>
      <trkpt lat="44.99367" lon="2.39848">
        <ele>687</ele>
        <time>2022-06-26T22:05:56+02:00</time>
      </trkpt>
      <trkpt lat="44.99346" lon="2.39775">
        <ele>694</ele>
        <time>2022-06-26T22:08:12+02:00</time>
      </trkpt>
      <trkpt lat="44.99352" lon="2.3974">
        <ele>691</ele>
        <time>2022-06-26T22:08:42+02:00</time>
      </trkpt>
      <trkpt lat="44.99364" lon="2.39692">
        <ele>684</ele>
        <time>2022-06-26T22:09:23+02:00</time>
      </trkpt>
      <trkpt lat="44.99366" lon="2.39625">
        <ele>682</ele>
        <time>2022-06-26T22:10:18+02:00</time>
      </trkpt>
      <trkpt lat="44.99371" lon="2.39588">
        <ele>681</ele>
        <time>2022-06-26T22:10:48+02:00</time>
      </trkpt>
      <trkpt lat="44.99392" lon="2.39555">
        <ele>677</ele>
        <time>2022-06-26T22:11:24+02:00</time>
      </trkpt>
      <trkpt lat="44.9942" lon="2.39524">
        <ele>673</ele>
        <time>2022-06-26T22:12:05+02:00</time>
      </trkpt>
      <trkpt lat="44.99415" lon="2.39486">
        <ele>673</ele>
        <time>2022-06-26T22:12:36+02:00</time>
      </trkpt>
      <trkpt lat="44.99388" lon="2.39451">
        <ele>676</ele>
        <time>2022-06-26T22:13:48+02:00</time>
      </trkpt>
      <trkpt lat="44.99329" lon="2.39383">
        <ele>683</ele>
        <time>2022-06-26T22:16:28+02:00</time>
      </trkpt>
      <trkpt lat="44.99328" lon="2.39355">
        <ele>683</ele>
        <time>2022-06-26T22:16:51+02:00</time>
      </trkpt>
      <trkpt lat="44.99349" lon="2.39281">
        <ele>679</ele>
        <time>2022-06-26T22:17:55+02:00</time>
      </trkpt>
      <trkpt lat="44.99346" lon="2.39224">
        <ele>677</ele>
        <time>2022-06-26T22:18:41+02:00</time>
      </trkpt>
      <trkpt lat="44.99329" lon="2.39179">
        <ele>675</ele>
        <time>2022-06-26T22:19:22+02:00</time>
      </trkpt>
      <trkpt lat="44.99318" lon="2.39159">
        <ele>675</ele>
        <time>2022-06-26T22:19:42+02:00</time>
      </trkpt>
      <trkpt lat="44.99275" lon="2.39147">
        <ele>679</ele>
        <time>2022-06-26T22:21:13+02:00</time>
      </trkpt>
      <trkpt lat="44.99267" lon="2.39164">
        <ele>681</ele>
        <time>2022-06-26T22:21:51+02:00</time>
      </trkpt>
      <trkpt lat="44.9925" lon="2.3919">
        <ele>684</ele>
        <time>2022-06-26T22:22:50+02:00</time>
      </trkpt>
      <trkpt lat="44.99232" lon="2.39216">
        <ele>688</ele>
        <time>2022-06-26T22:24:01+02:00</time>
      </trkpt>
      <trkpt lat="44.99213" lon="2.39257">
        <ele>693</ele>
        <time>2022-06-26T22:25:32+02:00</time>
      </trkpt>
      <trkpt lat="44.99209" lon="2.3928">
        <ele>694</ele>
        <time>2022-06-26T22:26:02+02:00</time>
      </trkpt>
      <trkpt lat="44.99196" lon="2.39302">
        <ele>696</ele>
        <time>2022-06-26T22:26:46+02:00</time>
      </trkpt>
      <trkpt lat="44.99186" lon="2.39301">
        <ele>698</ele>
        <time>2022-06-26T22:27:18+02:00</time>
      </trkpt>
      <trkpt lat="44.99166" lon="2.39256">
        <ele>700</ele>
        <time>2022-06-26T22:28:22+02:00</time>
      </trkpt>
      <trkpt lat="44.99139" lon="2.39219">
        <ele>709</ele>
        <time>2022-06-26T22:30:38+02:00</time>
      </trkpt>
      <trkpt lat="44.99059" lon="2.39076">
        <ele>724</ele>
        <time>2022-06-26T22:35:40+02:00</time>
      </trkpt>
      <trkpt lat="44.99024" lon="2.39041">
        <ele>727</ele>
        <time>2022-06-26T22:37:00+02:00</time>
      </trkpt>
      <trkpt lat="44.98883" lon="2.38963">
        <ele>739</ele>
        <time>2022-06-26T22:41:57+02:00</time>
      </trkpt>
      <trkpt lat="44.98867" lon="2.38959">
        <ele>740</ele>
        <time>2022-06-26T22:42:26+02:00</time>
      </trkpt>
      <trkpt lat="44.98838" lon="2.38973">
        <ele>742</ele>
        <time>2022-06-26T22:43:23+02:00</time>
      </trkpt>
      <trkpt lat="44.98758" lon="2.38729">
        <ele>739</ele>
        <time>2022-06-26T22:47:00+02:00</time>
      </trkpt>
      <trkpt lat="44.98754" lon="2.387">
        <ele>740</ele>
        <time>2022-06-26T22:47:34+02:00</time>
      </trkpt>
      <trkpt lat="44.98752" lon="2.38677">
        <ele>740</ele>
        <time>2022-06-26T22:47:53+02:00</time>
      </trkpt>
      <trkpt lat="44.98761" lon="2.38621">
        <ele>740</ele>
        <time>2022-06-26T22:48:40+02:00</time>
      </trkpt>
      <trkpt lat="44.98761" lon="2.3853">
        <ele>740</ele>
        <time>2022-06-26T22:49:54+02:00</time>
      </trkpt>
      <trkpt lat="44.9876" lon="2.3847">
        <ele>738</ele>
        <time>2022-06-26T22:50:42+02:00</time>
      </trkpt>
      <trkpt lat="44.98757" lon="2.38362">
        <ele>731</ele>
        <time>2022-06-26T22:52:10+02:00</time>
      </trkpt>
      <trkpt lat="44.98753" lon="2.38302">
        <ele>728</ele>
        <time>2022-06-26T22:52:58+02:00</time>
      </trkpt>
      <trkpt lat="44.98749" lon="2.38271">
        <ele>725</ele>
        <time>2022-06-26T22:53:24+02:00</time>
      </trkpt>
      <trkpt lat="44.98745" lon="2.38254">
        <ele>724</ele>
        <time>2022-06-26T22:53:38+02:00</time>
      </trkpt>
      <trkpt lat="44.9875" lon="2.38226">
        <ele>723</ele>
        <time>2022-06-26T22:54:02+02:00</time>
      </trkpt>
      <trkpt lat="44.9874" lon="2.38174">
        <ele>719</ele>
        <time>2022-06-26T22:54:46+02:00</time>
      </trkpt>
      <trkpt lat="44.98696" lon="2.38031">
        <ele>714</ele>
        <time>2022-06-26T22:56:52+02:00</time>
      </trkpt>
      <trkpt lat="44.98649" lon="2.37916">
        <ele>715</ele>
        <time>2022-06-26T22:58:50+02:00</time>
      </trkpt>
      <trkpt lat="44.98634" lon="2.37858">
        <ele>718</ele>
        <time>2022-06-26T23:00:11+02:00</time>
      </trkpt>
      <trkpt lat="44.98629" lon="2.37785">
        <ele>721</ele>
        <time>2022-06-26T23:01:41+02:00</time>
      </trkpt>
      <trkpt lat="44.98621" lon="2.37637">
        <ele>726</ele>
        <time>2022-06-26T23:04:33+02:00</time>
      </trkpt>
      <trkpt lat="44.98621" lon="2.37599">
        <ele>727</ele>
        <time>2022-06-26T23:05:14+02:00</time>
      </trkpt>
      <trkpt lat="44.98635" lon="2.3757">
        <ele>727</ele>
        <time>2022-06-26T23:05:42+02:00</time>
      </trkpt>
      <trkpt lat="44.98648" lon="2.37531">
        <ele>726</ele>
        <time>2022-06-26T23:06:17+02:00</time>
      </trkpt>
      <trkpt lat="44.98652" lon="2.37489">
        <ele>726</ele>
        <time>2022-06-26T23:06:51+02:00</time>
      </trkpt>
      <trkpt lat="44.9865" lon="2.37435">
        <ele>726</ele>
        <time>2022-06-26T23:07:34+02:00</time>
      </trkpt>
      <trkpt lat="44.98642" lon="2.37371">
        <ele>726</ele>
        <time>2022-06-26T23:08:27+02:00</time>
      </trkpt>
      <trkpt lat="44.98643" lon="2.37303">
        <ele>725</ele>
        <time>2022-06-26T23:09:23+02:00</time>
      </trkpt>
      <trkpt lat="44.9865" lon="2.37247">
        <ele>725</ele>
        <time>2022-06-26T23:10:09+02:00</time>
      </trkpt>
      <trkpt lat="44.98662" lon="2.37214">
        <ele>723</ele>
        <time>2022-06-26T23:10:39+02:00</time>
      </trkpt>
      <trkpt lat="44.98712" lon="2.37143">
        <ele>716</ele>
        <time>2022-06-26T23:12:00+02:00</time>
      </trkpt>
      <trkpt lat="44.98754" lon="2.37103">
        <ele>716</ele>
        <time>2022-06-26T23:12:59+02:00</time>
      </trkpt>
      <trkpt lat="44.98811" lon="2.37054">
        <ele>719</ele>
        <time>2022-06-26T23:14:45+02:00</time>
      </trkpt>
      <trkpt lat="44.98842" lon="2.3702">
        <ele>724</ele>
        <time>2022-06-26T23:16:22+02:00</time>
      </trkpt>
      <trkpt lat="44.98855" lon="2.36985">
        <ele>727</ele>
        <time>2022-06-26T23:17:25+02:00</time>
      </trkpt>
      <trkpt lat="44.9886" lon="2.3693">
        <ele>728</ele>
        <time>2022-06-26T23:18:20+02:00</time>
      </trkpt>
      <trkpt lat="44.98872" lon="2.36926">
        <ele>729</ele>
        <time>2022-06-26T23:18:45+02:00</time>
      </trkpt>
      <trkpt lat="44.98902" lon="2.36935">
        <ele>729</ele>
        <time>2022-06-26T23:19:20+02:00</time>
      </trkpt>
      <trkpt lat="44.98929" lon="2.36919">
        <ele>729</ele>
        <time>2022-06-26T23:19:54+02:00</time>
      </trkpt>
      <trkpt lat="44.98955" lon="2.36904">
        <ele>728</ele>
        <time>2022-06-26T23:20:26+02:00</time>
      </trkpt>
      <trkpt lat="44.98989" lon="2.36876">
        <ele>726</ele>
        <time>2022-06-26T23:21:12+02:00</time>
      </trkpt>
      <trkpt lat="44.99015" lon="2.36865">
        <ele>723</ele>
        <time>2022-06-26T23:21:43+02:00</time>
      </trkpt>
      <trkpt lat="44.99037" lon="2.36862">
        <ele>721</ele>
        <time>2022-06-26T23:22:08+02:00</time>
      </trkpt>
      <trkpt lat="44.99096" lon="2.36817">
        <ele>718</ele>
        <time>2022-06-26T23:23:25+02:00</time>
      </trkpt>
      <trkpt lat="44.99137" lon="2.36771">
        <ele>716</ele>
        <time>2022-06-26T23:24:25+02:00</time>
      </trkpt>
      <trkpt lat="44.99151" lon="2.36741">
        <ele>717</ele>
        <time>2022-06-26T23:25:04+02:00</time>
      </trkpt>
      <trkpt lat="44.99167" lon="2.3669">
        <ele>716</ele>
        <time>2022-06-26T23:25:49+02:00</time>
      </trkpt>
      <trkpt lat="44.99178" lon="2.36621">
        <ele>710</ele>
        <time>2022-06-26T23:26:46+02:00</time>
      </trkpt>
      <trkpt lat="44.99181" lon="2.36537">
        <ele>706</ele>
        <time>2022-06-26T23:27:55+02:00</time>
      </trkpt>
      <trkpt lat="44.99205" lon="2.36448">
        <ele>702</ele>
        <time>2022-06-26T23:29:12+02:00</time>
      </trkpt>
      <trkpt lat="44.99212" lon="2.364">
        <ele>701</ele>
        <time>2022-06-26T23:29:51+02:00</time>
      </trkpt>
      <trkpt lat="44.99211" lon="2.3634">
        <ele>701</ele>
        <time>2022-06-26T23:30:40+02:00</time>
      </trkpt>
      <trkpt lat="44.99212" lon="2.36256">
        <ele>703</ele>
        <time>2022-06-26T23:32:09+02:00</time>
      </trkpt>
      <trkpt lat="44.99222" lon="2.36192">
        <ele>703</ele>
        <time>2022-06-26T23:33:02+02:00</time>
      </trkpt>
      <trkpt lat="44.99221" lon="2.36117">
        <ele>704</ele>
        <time>2022-06-26T23:34:13+02:00</time>
      </trkpt>
      <trkpt lat="44.9923" lon="2.36021">
        <ele>704</ele>
        <time>2022-06-26T23:35:31+02:00</time>
      </trkpt>
      <trkpt lat="44.99231" lon="2.36003">
        <ele>704</ele>
        <time>2022-06-26T23:35:46+02:00</time>
      </trkpt>
      <trkpt lat="44.99219" lon="2.35928">
        <ele>700</ele>
        <time>2022-06-26T23:36:49+02:00</time>
      </trkpt>
      <trkpt lat="44.99226" lon="2.35807">
        <ele>698</ele>
        <time>2022-06-26T23:38:27+02:00</time>
      </trkpt>
      <trkpt lat="44.99226" lon="2.35765">
        <ele>697</ele>
        <time>2022-06-26T23:39:02+02:00</time>
      </trkpt>
      <trkpt lat="44.99217" lon="2.3574">
        <ele>697</ele>
        <time>2022-06-26T23:39:24+02:00</time>
      </trkpt>
      <trkpt lat="44.99223" lon="2.35674">
        <ele>692</ele>
        <time>2022-06-26T23:40:18+02:00</time>
      </trkpt>
      <trkpt lat="44.99242" lon="2.35548">
        <ele>686</ele>
        <time>2022-06-26T23:42:02+02:00</time>
      </trkpt>
      <trkpt lat="44.99249" lon="2.35469">
        <ele>681</ele>
        <time>2022-06-26T23:43:07+02:00</time>
      </trkpt>
      <trkpt lat="44.99246" lon="2.35428">
        <ele>679</ele>
        <time>2022-06-26T23:43:41+02:00</time>
      </trkpt>
      <trkpt lat="44.99233" lon="2.35322">
        <ele>675</ele>
        <time>2022-06-26T23:45:07+02:00</time>
      </trkpt>
      <trkpt lat="44.99238" lon="2.35285">
        <ele>675</ele>
        <time>2022-06-26T23:45:38+02:00</time>
      </trkpt>
      <trkpt lat="44.99247" lon="2.35227">
        <ele>676</ele>
        <time>2022-06-26T23:46:37+02:00</time>
      </trkpt>
      <trkpt lat="44.99252" lon="2.35165">
        <ele>677</ele>
        <time>2022-06-26T23:47:38+02:00</time>
      </trkpt>
      <trkpt lat="44.9927" lon="2.35143">
        <ele>677</ele>
        <time>2022-06-26T23:48:06+02:00</time>
      </trkpt>
      <trkpt lat="44.99275" lon="2.35119">
        <ele>676</ele>
        <time>2022-06-26T23:48:26+02:00</time>
      </trkpt>
      <trkpt lat="44.99287" lon="2.35071">
        <ele>675</ele>
        <time>2022-06-26T23:49:07+02:00</time>
      </trkpt>
      <trkpt lat="44.99298" lon="2.35047">
        <ele>673</ele>
        <time>2022-06-26T23:49:30+02:00</time>
      </trkpt>
      <trkpt lat="44.99311" lon="2.35014">
        <ele>671</ele>
        <time>2022-06-26T23:50:01+02:00</time>
      </trkpt>
      <trkpt lat="44.99326" lon="2.34972">
        <ele>670</ele>
        <time>2022-06-26T23:50:39+02:00</time>
      </trkpt>
      <trkpt lat="44.99339" lon="2.34951">
        <ele>670</ele>
        <time>2022-06-26T23:51:02+02:00</time>
      </trkpt>
      <trkpt lat="44.99386" lon="2.34918">
        <ele>664</ele>
        <time>2022-06-26T23:52:02+02:00</time>
      </trkpt>
      <trkpt lat="44.9942" lon="2.34901">
        <ele>659</ele>
        <time>2022-06-26T23:52:44+02:00</time>
      </trkpt>
      <trkpt lat="44.99444" lon="2.34877">
        <ele>656</ele>
        <time>2022-06-26T23:53:17+02:00</time>
      </trkpt>
      <trkpt lat="44.99452" lon="2.34874">
        <ele>655</ele>
        <time>2022-06-26T23:53:26+02:00</time>
      </trkpt>
      <trkpt lat="44.99463" lon="2.34884">
        <ele>652</ele>
        <time>2022-06-26T23:53:41+02:00</time>
      </trkpt>
      <trkpt lat="44.99473" lon="2.34884">
        <ele>650</ele>
        <time>2022-06-26T23:53:53+02:00</time>
      </trkpt>
      <trkpt lat="44.99501" lon="2.34912">
        <ele>645</ele>
        <time>2022-06-26T23:54:32+02:00</time>
      </trkpt>
      <trkpt lat="44.99519" lon="2.34923">
        <ele>643</ele>
        <time>2022-06-26T23:54:54+02:00</time>
      </trkpt>
      <trkpt lat="44.99582" lon="2.34923">
        <ele>639</ele>
        <time>2022-06-26T23:56:06+02:00</time>
      </trkpt>
      <trkpt lat="44.99607" lon="2.34941">
        <ele>636</ele>
        <time>2022-06-26T23:56:37+02:00</time>
      </trkpt>
      <trkpt lat="44.99624" lon="2.34958">
        <ele>634</ele>
        <time>2022-06-26T23:57:01+02:00</time>
      </trkpt>
      <trkpt lat="44.99641" lon="2.34962">
        <ele>632</ele>
        <time>2022-06-26T23:57:21+02:00</time>
      </trkpt>
      <trkpt lat="44.99652" lon="2.34958">
        <ele>633</ele>
        <time>2022-06-26T23:57:45+02:00</time>
      </trkpt>
      <trkpt lat="44.9966" lon="2.34943">
        <ele>634</ele>
        <time>2022-06-26T23:58:10+02:00</time>
      </trkpt>
      <trkpt lat="44.99662" lon="2.34925">
        <ele>637</ele>
        <time>2022-06-26T23:58:55+02:00</time>
      </trkpt>
      <trkpt lat="44.9968" lon="2.34889">
        <ele>636</ele>
        <time>2022-06-26T23:59:31+02:00</time>
      </trkpt>
      <trkpt lat="44.99695" lon="2.34871">
        <ele>634</ele>
        <time>2022-06-26T23:59:54+02:00</time>
      </trkpt>
      <trkpt lat="44.99728" lon="2.34849">
        <ele>630</ele>
        <time>2022-06-27T00:00:35+02:00</time>
      </trkpt>
      <trkpt lat="44.99765" lon="2.34843">
        <ele>625</ele>
        <time>2022-06-27T00:01:18+02:00</time>
      </trkpt>
      <trkpt lat="44.99791" lon="2.34848">
        <ele>620</ele>
        <time>2022-06-27T00:01:48+02:00</time>
      </trkpt>
      <trkpt lat="44.99845" lon="2.34834">
        <ele>611</ele>
        <time>2022-06-27T00:02:51+02:00</time>
      </trkpt>
      <trkpt lat="44.99856" lon="2.34824">
        <ele>607</ele>
        <time>2022-06-27T00:03:06+02:00</time>
      </trkpt>
      <trkpt lat="44.99862" lon="2.348">
        <ele>605</ele>
        <time>2022-06-27T00:03:26+02:00</time>
      </trkpt>
      <trkpt lat="44.99862" lon="2.34765">
        <ele>603</ele>
        <time>2022-06-27T00:03:55+02:00</time>
      </trkpt>
      <trkpt lat="44.99863" lon="2.34752">
        <ele>602</ele>
        <time>2022-06-27T00:04:05+02:00</time>
      </trkpt>
      <trkpt lat="44.99879" lon="2.34753">
        <ele>600</ele>
        <time>2022-06-27T00:04:22+02:00</time>
      </trkpt>
      <trkpt lat="44.99894" lon="2.34758">
        <ele>597</ele>
        <time>2022-06-27T00:04:40+02:00</time>
      </trkpt>
      <trkpt lat="44.99906" lon="2.34771">
        <ele>595</ele>
        <time>2022-06-27T00:04:58+02:00</time>
      </trkpt>
      <trkpt lat="44.99914" lon="2.3476">
        <ele>593</ele>
        <time>2022-06-27T00:05:11+02:00</time>
      </trkpt>
      <trkpt lat="44.99917" lon="2.34725">
        <ele>592</ele>
        <time>2022-06-27T00:05:40+02:00</time>
      </trkpt>
      <trkpt lat="44.99907" lon="2.34691">
        <ele>590</ele>
        <time>2022-06-27T00:06:10+02:00</time>
      </trkpt>
      <trkpt lat="44.99891" lon="2.34671">
        <ele>589</ele>
        <time>2022-06-27T00:06:35+02:00</time>
      </trkpt>
      <trkpt lat="44.99869" lon="2.34668">
        <ele>588</ele>
        <time>2022-06-27T00:07:00+02:00</time>
      </trkpt>
      <trkpt lat="44.99857" lon="2.34636">
        <ele>590</ele>
        <time>2022-06-27T00:07:50+02:00</time>
      </trkpt>
      <trkpt lat="44.99855" lon="2.34598">
        <ele>591</ele>
        <time>2022-06-27T00:08:31+02:00</time>
      </trkpt>
      <trkpt lat="44.99835" lon="2.34583">
        <ele>589</ele>
        <time>2022-06-27T00:08:57+02:00</time>
      </trkpt>
      <trkpt lat="44.9982" lon="2.34561">
        <ele>590</ele>
        <time>2022-06-27T00:09:32+02:00</time>
      </trkpt>
      <trkpt lat="44.99806" lon="2.34517">
        <ele>594</ele>
        <time>2022-06-27T00:10:52+02:00</time>
      </trkpt>
      <trkpt lat="44.99801" lon="2.34467">
        <ele>600</ele>
        <time>2022-06-27T00:12:35+02:00</time>
      </trkpt>
      <trkpt lat="44.99825" lon="2.34384">
        <ele>609</ele>
        <time>2022-06-27T00:15:20+02:00</time>
      </trkpt>
      <trkpt lat="44.9987" lon="2.34315">
        <ele>614</ele>
        <time>2022-06-27T00:17:28+02:00</time>
      </trkpt>
      <trkpt lat="44.99927" lon="2.34266">
        <ele>618</ele>
        <time>2022-06-27T00:19:25+02:00</time>
      </trkpt>
      <trkpt lat="44.9998" lon="2.34223">
        <ele>624</ele>
        <time>2022-06-27T00:21:37+02:00</time>
      </trkpt>
      <trkpt lat="45.00062" lon="2.34176">
        <ele>630</ele>
        <time>2022-06-27T00:24:20+02:00</time>
      </trkpt>
      <trkpt lat="45.00085" lon="2.34168">
        <ele>631</ele>
        <time>2022-06-27T00:24:57+02:00</time>
      </trkpt>
      <trkpt lat="45.00102" lon="2.34131">
        <ele>630</ele>
        <time>2022-06-27T00:25:32+02:00</time>
      </trkpt>
      <trkpt lat="45.00096" lon="2.34112">
        <ele>628</ele>
        <time>2022-06-27T00:25:49+02:00</time>
      </trkpt>
      <trkpt lat="45.00103" lon="2.34088">
        <ele>627</ele>
        <time>2022-06-27T00:26:10+02:00</time>
      </trkpt>
      <trkpt lat="45.00143" lon="2.34034">
        <ele>624</ele>
        <time>2022-06-27T00:27:13+02:00</time>
      </trkpt>
      <trkpt lat="45.00171" lon="2.33992">
        <ele>622</ele>
        <time>2022-06-27T00:28:00+02:00</time>
      </trkpt>
      <trkpt lat="45.00198" lon="2.33978">
        <ele>619</ele>
        <time>2022-06-27T00:28:33+02:00</time>
      </trkpt>
      <trkpt lat="45.00239" lon="2.33935">
        <ele>613</ele>
        <time>2022-06-27T00:29:32+02:00</time>
      </trkpt>
      <trkpt lat="45.0031" lon="2.33861">
        <ele>609</ele>
        <time>2022-06-27T00:31:13+02:00</time>
      </trkpt>
      <trkpt lat="45.00289" lon="2.33823">
        <ele>612</ele>
        <time>2022-06-27T00:32:23+02:00</time>
      </trkpt>
      <trkpt lat="45.00228" lon="2.33796">
        <ele>619</ele>
        <time>2022-06-27T00:34:49+02:00</time>
      </trkpt>
      <trkpt lat="45.0019" lon="2.33783">
        <ele>621</ele>
        <time>2022-06-27T00:35:55+02:00</time>
      </trkpt>
      <trkpt lat="45.00166" lon="2.33765">
        <ele>623</ele>
        <time>2022-06-27T00:36:46+02:00</time>
      </trkpt>
      <trkpt lat="45.00135" lon="2.33719">
        <ele>622</ele>
        <time>2022-06-27T00:37:37+02:00</time>
      </trkpt>
      <trkpt lat="45.00114" lon="2.33687">
        <ele>620</ele>
        <time>2022-06-27T00:38:13+02:00</time>
      </trkpt>
      <trkpt lat="45.0011" lon="2.33661">
        <ele>620</ele>
        <time>2022-06-27T00:38:34+02:00</time>
      </trkpt>
      <trkpt lat="45.00111" lon="2.33642">
        <ele>620</ele>
        <time>2022-06-27T00:38:50+02:00</time>
      </trkpt>
      <trkpt lat="45.00101" lon="2.33622">
        <ele>620</ele>
        <time>2022-06-27T00:39:09+02:00</time>
      </trkpt>
      <trkpt lat="45.00082" lon="2.33617">
        <ele>619</ele>
        <time>2022-06-27T00:39:31+02:00</time>
      </trkpt>
      <trkpt lat="45.00073" lon="2.3362">
        <ele>620</ele>
        <time>2022-06-27T00:39:52+02:00</time>
      </trkpt>
      <trkpt lat="44.99977" lon="2.33465">
        <ele>627</ele>
        <time>2022-06-27T00:43:51+02:00</time>
      </trkpt>
      <trkpt lat="44.99936" lon="2.33362">
        <ele>624</ele>
        <time>2022-06-27T00:45:26+02:00</time>
      </trkpt>
      <trkpt lat="44.99845" lon="2.33308">
        <ele>616</ele>
        <time>2022-06-27T00:47:19+02:00</time>
      </trkpt>
      <trkpt lat="44.99817" lon="2.33297">
        <ele>614</ele>
        <time>2022-06-27T00:47:53+02:00</time>
      </trkpt>
      <trkpt lat="44.9979" lon="2.33269">
        <ele>611</ele>
        <time>2022-06-27T00:48:31+02:00</time>
      </trkpt>
      <trkpt lat="44.99754" lon="2.33263">
        <ele>610</ele>
        <time>2022-06-27T00:49:13+02:00</time>
      </trkpt>
      <trkpt lat="44.99725" lon="2.33235">
        <ele>606</ele>
        <time>2022-06-27T00:49:53+02:00</time>
      </trkpt>
      <trkpt lat="44.99687" lon="2.33222">
        <ele>604</ele>
        <time>2022-06-27T00:50:37+02:00</time>
      </trkpt>
      <trkpt lat="44.99636" lon="2.33181">
        <ele>603</ele>
        <time>2022-06-27T00:51:44+02:00</time>
      </trkpt>
      <trkpt lat="44.99617" lon="2.3315">
        <ele>602</ele>
        <time>2022-06-27T00:52:17+02:00</time>
      </trkpt>
      <trkpt lat="44.99608" lon="2.33121">
        <ele>599</ele>
        <time>2022-06-27T00:52:43+02:00</time>
      </trkpt>
      <trkpt lat="44.99585" lon="2.3312">
        <ele>600</ele>
        <time>2022-06-27T00:53:20+02:00</time>
      </trkpt>
      <trkpt lat="44.99559" lon="2.33141">
        <ele>604</ele>
        <time>2022-06-27T00:54:36+02:00</time>
      </trkpt>
      <trkpt lat="44.99519" lon="2.33139">
        <ele>604</ele>
        <time>2022-06-27T00:55:22+02:00</time>
      </trkpt>
      <trkpt lat="44.9949" lon="2.33131">
        <ele>601</ele>
        <time>2022-06-27T00:55:56+02:00</time>
      </trkpt>
      <trkpt lat="44.99481" lon="2.33117">
        <ele>597</ele>
        <time>2022-06-27T00:56:11+02:00</time>
      </trkpt>
      <trkpt lat="44.99489" lon="2.33107">
        <ele>595</ele>
        <time>2022-06-27T00:56:24+02:00</time>
      </trkpt>
      <trkpt lat="44.99519" lon="2.33108">
        <ele>597</ele>
        <time>2022-06-27T00:57:18+02:00</time>
      </trkpt>
      <trkpt lat="44.99549" lon="2.331">
        <ele>595</ele>
        <time>2022-06-27T00:57:52+02:00</time>
      </trkpt>
      <trkpt lat="44.99568" lon="2.33094">
        <ele>595</ele>
        <time>2022-06-27T00:58:15+02:00</time>
      </trkpt>
      <trkpt lat="44.99568" lon="2.33075">
        <ele>593</ele>
        <time>2022-06-27T00:58:30+02:00</time>
      </trkpt>
      <trkpt lat="44.99555" lon="2.33067">
        <ele>592</ele>
        <time>2022-06-27T00:58:46+02:00</time>
      </trkpt>
      <trkpt lat="44.99538" lon="2.33076">
        <ele>591</ele>
        <time>2022-06-27T00:59:07+02:00</time>
      </trkpt>
      <trkpt lat="44.99507" lon="2.33069">
        <ele>590</ele>
        <time>2022-06-27T00:59:43+02:00</time>
      </trkpt>
      <trkpt lat="44.99452" lon="2.3304">
        <ele>581</ele>
        <time>2022-06-27T01:00:50+02:00</time>
      </trkpt>
      <trkpt lat="44.99427" lon="2.33015">
        <ele>574</ele>
        <time>2022-06-27T01:01:25+02:00</time>
      </trkpt>
      <trkpt lat="44.99406" lon="2.32967">
        <ele>566</ele>
        <time>2022-06-27T01:02:11+02:00</time>
      </trkpt>
      <trkpt lat="44.99392" lon="2.3297">
        <ele>564</ele>
        <time>2022-06-27T01:02:27+02:00</time>
      </trkpt>
      <trkpt lat="44.99375" lon="2.3299">
        <ele>563</ele>
        <time>2022-06-27T01:02:52+02:00</time>
      </trkpt>
      <trkpt lat="44.99319" lon="2.32992">
        <ele>557</ele>
        <time>2022-06-27T01:03:56+02:00</time>
      </trkpt>
      <trkpt lat="44.99306" lon="2.33004">
        <ele>558</ele>
        <time>2022-06-27T01:04:24+02:00</time>
      </trkpt>
      <trkpt lat="44.99294" lon="2.33039">
        <ele>560</ele>
        <time>2022-06-27T01:05:16+02:00</time>
      </trkpt>
      <trkpt lat="44.99283" lon="2.33053">
        <ele>560</ele>
        <time>2022-06-27T01:05:33+02:00</time>
      </trkpt>
      <trkpt lat="44.99263" lon="2.33064">
        <ele>561</ele>
        <time>2022-06-27T01:06:08+02:00</time>
      </trkpt>
      <trkpt lat="44.99235" lon="2.33057">
        <ele>564</ele>
        <time>2022-06-27T01:07:11+02:00</time>
      </trkpt>
      <trkpt lat="44.99215" lon="2.3304">
        <ele>568</ele>
        <time>2022-06-27T01:08:19+02:00</time>
      </trkpt>
      <trkpt lat="44.99187" lon="2.32991">
        <ele>575</ele>
        <time>2022-06-27T01:10:22+02:00</time>
      </trkpt>
      <trkpt lat="44.99183" lon="2.32927">
        <ele>577</ele>
        <time>2022-06-27T01:11:35+02:00</time>
      </trkpt>
      <trkpt lat="44.9917" lon="2.32866">
        <ele>583</ele>
        <time>2022-06-27T01:13:28+02:00</time>
      </trkpt>
      <trkpt lat="44.99149" lon="2.32807">
        <ele>591</ele>
        <time>2022-06-27T01:15:44+02:00</time>
      </trkpt>
      <trkpt lat="44.99137" lon="2.32754">
        <ele>597</ele>
        <time>2022-06-27T01:17:31+02:00</time>
      </trkpt>
      <trkpt lat="44.99125" lon="2.32679">
        <ele>604</ele>
        <time>2022-06-27T01:19:45+02:00</time>
      </trkpt>
      <trkpt lat="44.99103" lon="2.32637">
        <ele>612</ele>
        <time>2022-06-27T01:21:50+02:00</time>
      </trkpt>
      <trkpt lat="44.99069" lon="2.32593">
        <ele>620</ele>
        <time>2022-06-27T01:24:05+02:00</time>
      </trkpt>
      <trkpt lat="44.99033" lon="2.32566">
        <ele>628</ele>
        <time>2022-06-27T01:26:14+02:00</time>
      </trkpt>
      <trkpt lat="44.9899" lon="2.32551">
        <ele>634</ele>
        <time>2022-06-27T01:28:07+02:00</time>
      </trkpt>
      <trkpt lat="44.98968" lon="2.32529">
        <ele>636</ele>
        <time>2022-06-27T01:28:58+02:00</time>
      </trkpt>
      <trkpt lat="44.98957" lon="2.32474">
        <ele>637</ele>
        <time>2022-06-27T01:29:55+02:00</time>
      </trkpt>
      <trkpt lat="44.98939" lon="2.32443">
        <ele>638</ele>
        <time>2022-06-27T01:30:38+02:00</time>
      </trkpt>
      <trkpt lat="44.9891" lon="2.32418">
        <ele>639</ele>
        <time>2022-06-27T01:31:27+02:00</time>
      </trkpt>
      <trkpt lat="44.98861" lon="2.32421">
        <ele>638</ele>
        <time>2022-06-27T01:32:24+02:00</time>
      </trkpt>
      <trkpt lat="44.98888" lon="2.32393">
        <ele>638</ele>
        <time>2022-06-27T01:33:02+02:00</time>
      </trkpt>
      <trkpt lat="44.98936" lon="2.32361">
        <ele>641</ele>
        <time>2022-06-27T01:34:33+02:00</time>
      </trkpt>
      <trkpt lat="44.98969" lon="2.32328">
        <ele>642</ele>
        <time>2022-06-27T01:35:30+02:00</time>
      </trkpt>
      <trkpt lat="44.98997" lon="2.32288">
        <ele>645</ele>
        <time>2022-06-27T01:36:46+02:00</time>
      </trkpt>
      <trkpt lat="44.99019" lon="2.32248">
        <ele>646</ele>
        <time>2022-06-27T01:37:37+02:00</time>
      </trkpt>
      <trkpt lat="44.99029" lon="2.32223">
        <ele>645</ele>
        <time>2022-06-27T01:38:01+02:00</time>
      </trkpt>
      <trkpt lat="44.99024" lon="2.32184">
        <ele>645</ele>
        <time>2022-06-27T01:38:33+02:00</time>
      </trkpt>
      <trkpt lat="44.99008" lon="2.32136">
        <ele>646</ele>
        <time>2022-06-27T01:39:27+02:00</time>
      </trkpt>
      <trkpt lat="44.98996" lon="2.32082">
        <ele>645</ele>
        <time>2022-06-27T01:40:13+02:00</time>
      </trkpt>
      <trkpt lat="44.98993" lon="2.32036">
        <ele>644</ele>
        <time>2022-06-27T01:40:50+02:00</time>
      </trkpt>
      <trkpt lat="44.98994" lon="2.32019">
        <ele>644</ele>
        <time>2022-06-27T01:41:03+02:00</time>
      </trkpt>
      <trkpt lat="44.99007" lon="2.31978">
        <ele>641</ele>
        <time>2022-06-27T01:41:40+02:00</time>
      </trkpt>
      <trkpt lat="44.99036" lon="2.31974">
        <ele>638</ele>
        <time>2022-06-27T01:42:13+02:00</time>
      </trkpt>
      <trkpt lat="44.99093" lon="2.31955">
        <ele>631</ele>
        <time>2022-06-27T01:43:19+02:00</time>
      </trkpt>
      <trkpt lat="44.99116" lon="2.31954">
        <ele>627</ele>
        <time>2022-06-27T01:43:46+02:00</time>
      </trkpt>
      <trkpt lat="44.99145" lon="2.31972">
        <ele>621</ele>
        <time>2022-06-27T01:44:22+02:00</time>
      </trkpt>
      <trkpt lat="44.99167" lon="2.31989">
        <ele>616</ele>
        <time>2022-06-27T01:44:51+02:00</time>
      </trkpt>
      <trkpt lat="44.99202" lon="2.31999">
        <ele>612</ele>
        <time>2022-06-27T01:45:31+02:00</time>
      </trkpt>
      <trkpt lat="44.9922" lon="2.32019">
        <ele>608</ele>
        <time>2022-06-27T01:45:58+02:00</time>
      </trkpt>
      <trkpt lat="44.99248" lon="2.32046">
        <ele>603</ele>
        <time>2022-06-27T01:46:37+02:00</time>
      </trkpt>
      <trkpt lat="44.99298" lon="2.32044">
        <ele>596</ele>
        <time>2022-06-27T01:47:34+02:00</time>
      </trkpt>
      <trkpt lat="44.9933" lon="2.32052">
        <ele>592</ele>
        <time>2022-06-27T01:48:11+02:00</time>
      </trkpt>
      <trkpt lat="44.99376" lon="2.32081">
        <ele>588</ele>
        <time>2022-06-27T01:49:09+02:00</time>
      </trkpt>
      <trkpt lat="44.99417" lon="2.32104">
        <ele>585</ele>
        <time>2022-06-27T01:49:59+02:00</time>
      </trkpt>
      <trkpt lat="44.99462" lon="2.32136">
        <ele>578</ele>
        <time>2022-06-27T01:50:57+02:00</time>
      </trkpt>
      <trkpt lat="44.99497" lon="2.32155">
        <ele>573</ele>
        <time>2022-06-27T01:51:40+02:00</time>
      </trkpt>
      <trkpt lat="44.99536" lon="2.3211">
        <ele>566</ele>
        <time>2022-06-27T01:52:37+02:00</time>
      </trkpt>
      <trkpt lat="44.9956" lon="2.32112">
        <ele>562</ele>
        <time>2022-06-27T01:53:05+02:00</time>
      </trkpt>
      <trkpt lat="44.99585" lon="2.32095">
        <ele>557</ele>
        <time>2022-06-27T01:53:36+02:00</time>
      </trkpt>
      <trkpt lat="44.99614" lon="2.32113">
        <ele>553</ele>
        <time>2022-06-27T01:54:12+02:00</time>
      </trkpt>
      <trkpt lat="44.99626" lon="2.32077">
        <ele>551</ele>
        <time>2022-06-27T01:54:44+02:00</time>
      </trkpt>
      <trkpt lat="44.9963" lon="2.32055">
        <ele>549</ele>
        <time>2022-06-27T01:55:02+02:00</time>
      </trkpt>
      <trkpt lat="44.99617" lon="2.32007">
        <ele>548</ele>
        <time>2022-06-27T01:55:43+02:00</time>
      </trkpt>
      <trkpt lat="44.99606" lon="2.31981">
        <ele>547</ele>
        <time>2022-06-27T01:56:08+02:00</time>
      </trkpt>
      <trkpt lat="44.99606" lon="2.31952">
        <ele>547</ele>
        <time>2022-06-27T01:56:31+02:00</time>
      </trkpt>
      <trkpt lat="44.99615" lon="2.31933">
        <ele>547</ele>
        <time>2022-06-27T01:56:49+02:00</time>
      </trkpt>
      <trkpt lat="44.99627" lon="2.31929">
        <ele>548</ele>
        <time>2022-06-27T01:57:14+02:00</time>
      </trkpt>
      <trkpt lat="44.99641" lon="2.31937">
        <ele>549</ele>
        <time>2022-06-27T01:57:42+02:00</time>
      </trkpt>
      <trkpt lat="44.99665" lon="2.31959">
        <ele>549</ele>
        <time>2022-06-27T01:58:14+02:00</time>
      </trkpt>
      <trkpt lat="44.99672" lon="2.31952">
        <ele>550</ele>
        <time>2022-06-27T01:58:34+02:00</time>
      </trkpt>
      <trkpt lat="44.99696" lon="2.3196">
        <ele>555</ele>
        <time>2022-06-27T01:59:53+02:00</time>
      </trkpt>
      <trkpt lat="44.99709" lon="2.31955">
        <ele>558</ele>
        <time>2022-06-27T02:00:40+02:00</time>
      </trkpt>
      <trkpt lat="44.99711" lon="2.31942">
        <ele>559</ele>
        <time>2022-06-27T02:01:01+02:00</time>
      </trkpt>
      <trkpt lat="44.99697" lon="2.3192">
        <ele>557</ele>
        <time>2022-06-27T02:01:24+02:00</time>
      </trkpt>
      <trkpt lat="44.99694" lon="2.3191">
        <ele>557</ele>
        <time>2022-06-27T02:01:33+02:00</time>
      </trkpt>
      <trkpt lat="44.99702" lon="2.31902">
        <ele>560</ele>
        <time>2022-06-27T02:02:15+02:00</time>
      </trkpt>
      <trkpt lat="44.99724" lon="2.31913">
        <ele>564</ele>
        <time>2022-06-27T02:03:22+02:00</time>
      </trkpt>
      <trkpt lat="44.99778" lon="2.3191">
        <ele>574</ele>
        <time>2022-06-27T02:06:07+02:00</time>
      </trkpt>
      <trkpt lat="44.99815" lon="2.31923">
        <ele>579</ele>
        <time>2022-06-27T02:07:42+02:00</time>
      </trkpt>
      <trkpt lat="44.99874" lon="2.31971">
        <ele>583</ele>
        <time>2022-06-27T02:09:42+02:00</time>
      </trkpt>
      <trkpt lat="44.99892" lon="2.31973">
        <ele>585</ele>
        <time>2022-06-27T02:10:23+02:00</time>
      </trkpt>
      <trkpt lat="44.99909" lon="2.31978">
        <ele>587</ele>
        <time>2022-06-27T02:11:04+02:00</time>
      </trkpt>
      <trkpt lat="44.99959" lon="2.31974">
        <ele>592</ele>
        <time>2022-06-27T02:12:52+02:00</time>
      </trkpt>
      <trkpt lat="44.99994" lon="2.31984">
        <ele>594</ele>
        <time>2022-06-27T02:13:54+02:00</time>
      </trkpt>
      <trkpt lat="45.00004" lon="2.3198">
        <ele>595</ele>
        <time>2022-06-27T02:14:17+02:00</time>
      </trkpt>
      <trkpt lat="45.00005" lon="2.31957">
        <ele>596</ele>
        <time>2022-06-27T02:14:46+02:00</time>
      </trkpt>
      <trkpt lat="45.00016" lon="2.31926">
        <ele>597</ele>
        <time>2022-06-27T02:15:24+02:00</time>
      </trkpt>
      <trkpt lat="45.00042" lon="2.31913">
        <ele>599</ele>
        <time>2022-06-27T02:16:16+02:00</time>
      </trkpt>
      <trkpt lat="45.00066" lon="2.3191">
        <ele>599</ele>
        <time>2022-06-27T02:16:43+02:00</time>
      </trkpt>
      <trkpt lat="45.00082" lon="2.31893">
        <ele>600</ele>
        <time>2022-06-27T02:17:16+02:00</time>
      </trkpt>
      <trkpt lat="45.001" lon="2.31847">
        <ele>600</ele>
        <time>2022-06-27T02:17:59+02:00</time>
      </trkpt>
      <trkpt lat="45.00161" lon="2.31771">
        <ele>607</ele>
        <time>2022-06-27T02:20:43+02:00</time>
      </trkpt>
      <trkpt lat="45.00181" lon="2.31762">
        <ele>608</ele>
        <time>2022-06-27T02:21:17+02:00</time>
      </trkpt>
      <trkpt lat="45.00202" lon="2.31757">
        <ele>609</ele>
        <time>2022-06-27T02:21:52+02:00</time>
      </trkpt>
      <trkpt lat="45.00215" lon="2.31746">
        <ele>610</ele>
        <time>2022-06-27T02:22:19+02:00</time>
      </trkpt>
      <trkpt lat="45.00288" lon="2.31648">
        <ele>618</ele>
        <time>2022-06-27T02:25:37+02:00</time>
      </trkpt>
      <trkpt lat="45.00303" lon="2.31642">
        <ele>619</ele>
        <time>2022-06-27T02:26:06+02:00</time>
      </trkpt>
      <trkpt lat="45.0036" lon="2.31623">
        <ele>622</ele>
        <time>2022-06-27T02:27:44+02:00</time>
      </trkpt>
      <trkpt lat="45.0038" lon="2.31605">
        <ele>624</ele>
        <time>2022-06-27T02:28:31+02:00</time>
      </trkpt>
      <trkpt lat="45.00398" lon="2.31592">
        <ele>625</ele>
        <time>2022-06-27T02:29:05+02:00</time>
      </trkpt>
      <trkpt lat="45.00432" lon="2.31547">
        <ele>626</ele>
        <time>2022-06-27T02:30:08+02:00</time>
      </trkpt>
      <trkpt lat="45.00436" lon="2.31533">
        <ele>626</ele>
        <time>2022-06-27T02:30:21+02:00</time>
      </trkpt>
      <trkpt lat="45.00505" lon="2.31419">
        <ele>632</ele>
        <time>2022-06-27T02:33:23+02:00</time>
      </trkpt>
      <trkpt lat="45.0054" lon="2.31336">
        <ele>631</ele>
        <time>2022-06-27T02:34:42+02:00</time>
      </trkpt>
      <trkpt lat="45.00605" lon="2.31187">
        <ele>635</ele>
        <time>2022-06-27T02:37:45+02:00</time>
      </trkpt>
      <trkpt lat="45.00635" lon="2.31159">
        <ele>636</ele>
        <time>2022-06-27T02:38:36+02:00</time>
      </trkpt>
      <trkpt lat="45.00657" lon="2.31154">
        <ele>637</ele>
        <time>2022-06-27T02:39:12+02:00</time>
      </trkpt>
      <trkpt lat="45.00747" lon="2.31091">
        <ele>633</ele>
        <time>2022-06-27T02:41:07+02:00</time>
      </trkpt>
      <trkpt lat="45.00735" lon="2.31062">
        <ele>632</ele>
        <time>2022-06-27T02:41:34+02:00</time>
      </trkpt>
      <trkpt lat="45.00656" lon="2.30992">
        <ele>630</ele>
        <time>2022-06-27T02:43:21+02:00</time>
      </trkpt>
      <trkpt lat="45.00583" lon="2.30944">
        <ele>625</ele>
        <time>2022-06-27T02:44:53+02:00</time>
      </trkpt>
      <trkpt lat="45.00534" lon="2.30918">
        <ele>621</ele>
        <time>2022-06-27T02:45:53+02:00</time>
      </trkpt>
      <trkpt lat="45.00465" lon="2.30909">
        <ele>617</ele>
        <time>2022-06-27T02:47:12+02:00</time>
      </trkpt>
      <trkpt lat="45.00418" lon="2.309">
        <ele>615</ele>
        <time>2022-06-27T02:48:06+02:00</time>
      </trkpt>
      <trkpt lat="45.00384" lon="2.30873">
        <ele>614</ele>
        <time>2022-06-27T02:48:50+02:00</time>
      </trkpt>
      <trkpt lat="45.00361" lon="2.30842">
        <ele>613</ele>
        <time>2022-06-27T02:49:27+02:00</time>
      </trkpt>
      <trkpt lat="45.00332" lon="2.30753">
        <ele>613</ele>
        <time>2022-06-27T02:50:46+02:00</time>
      </trkpt>
      <trkpt lat="45.00334" lon="2.30672">
        <ele>618</ele>
        <time>2022-06-27T02:52:42+02:00</time>
      </trkpt>
      <trkpt lat="45.00343" lon="2.30611">
        <ele>623</ele>
        <time>2022-06-27T02:54:24+02:00</time>
      </trkpt>
      <trkpt lat="45.00359" lon="2.30574">
        <ele>623</ele>
        <time>2022-06-27T02:54:59+02:00</time>
      </trkpt>
      <trkpt lat="45.00383" lon="2.30544">
        <ele>622</ele>
        <time>2022-06-27T02:55:36+02:00</time>
      </trkpt>
      <trkpt lat="45.00406" lon="2.30479">
        <ele>625</ele>
        <time>2022-06-27T02:57:05+02:00</time>
      </trkpt>
      <trkpt lat="45.00415" lon="2.30436">
        <ele>625</ele>
        <time>2022-06-27T02:57:42+02:00</time>
      </trkpt>
      <trkpt lat="45.0041" lon="2.30361">
        <ele>629</ele>
        <time>2022-06-27T02:59:24+02:00</time>
      </trkpt>
      <trkpt lat="45.00424" lon="2.30303">
        <ele>630</ele>
        <time>2022-06-27T03:00:24+02:00</time>
      </trkpt>
      <trkpt lat="45.00456" lon="2.30246">
        <ele>629</ele>
        <time>2022-06-27T03:01:23+02:00</time>
      </trkpt>
      <trkpt lat="45.00481" lon="2.30215">
        <ele>627</ele>
        <time>2022-06-27T03:02:02+02:00</time>
      </trkpt>
      <trkpt lat="45.00511" lon="2.30215">
        <ele>624</ele>
        <time>2022-06-27T03:02:36+02:00</time>
      </trkpt>
      <trkpt lat="45.00539" lon="2.30213">
        <ele>623</ele>
        <time>2022-06-27T03:03:09+02:00</time>
      </trkpt>
      <trkpt lat="45.00553" lon="2.30198">
        <ele>624</ele>
        <time>2022-06-27T03:03:40+02:00</time>
      </trkpt>
      <trkpt lat="45.00562" lon="2.30158">
        <ele>626</ele>
        <time>2022-06-27T03:04:34+02:00</time>
      </trkpt>
      <trkpt lat="45.00582" lon="2.30104">
        <ele>623</ele>
        <time>2022-06-27T03:05:24+02:00</time>
      </trkpt>
      <trkpt lat="45.0063" lon="2.30033">
        <ele>620</ele>
        <time>2022-06-27T03:06:43+02:00</time>
      </trkpt>
      <trkpt lat="45.00661" lon="2.30006">
        <ele>619</ele>
        <time>2022-06-27T03:07:25+02:00</time>
      </trkpt>
      <trkpt lat="45.00686" lon="2.29963">
        <ele>617</ele>
        <time>2022-06-27T03:08:10+02:00</time>
      </trkpt>
      <trkpt lat="45.00788" lon="2.29809">
        <ele>614</ele>
        <time>2022-06-27T03:11:01+02:00</time>
      </trkpt>
      <trkpt lat="45.00893" lon="2.29718">
        <ele>607</ele>
        <time>2022-06-27T03:13:22+02:00</time>
      </trkpt>
      <trkpt lat="45.00951" lon="2.29645">
        <ele>606</ele>
        <time>2022-06-27T03:14:52+02:00</time>
      </trkpt>
      <trkpt lat="45.00982" lon="2.29596">
        <ele>603</ele>
        <time>2022-06-27T03:15:46+02:00</time>
      </trkpt>
      <trkpt lat="45.00987" lon="2.29535">
        <ele>600</ele>
        <time>2022-06-27T03:16:35+02:00</time>
      </trkpt>
      <trkpt lat="45.00998" lon="2.29463">
        <ele>599</ele>
        <time>2022-06-27T03:17:34+02:00</time>
      </trkpt>
      <trkpt lat="45.01019" lon="2.2935">
        <ele>594</ele>
        <time>2022-06-27T03:19:08+02:00</time>
      </trkpt>
      <trkpt lat="45.01018" lon="2.29304">
        <ele>592</ele>
        <time>2022-06-27T03:19:46+02:00</time>
      </trkpt>
      <trkpt lat="45.01025" lon="2.29193">
        <ele>587</ele>
        <time>2022-06-27T03:21:16+02:00</time>
      </trkpt>
      <trkpt lat="45.01065" lon="2.29099">
        <ele>584</ele>
        <time>2022-06-27T03:22:44+02:00</time>
      </trkpt>
      <trkpt lat="45.01066" lon="2.29071">
        <ele>584</ele>
        <time>2022-06-27T03:23:07+02:00</time>
      </trkpt>
      <trkpt lat="45.01036" lon="2.29012">
        <ele>582</ele>
        <time>2022-06-27T03:24:06+02:00</time>
      </trkpt>
      <trkpt lat="45.01028" lon="2.2894">
        <ele>579</ele>
        <time>2022-06-27T03:25:05+02:00</time>
      </trkpt>
      <trkpt lat="45.01018" lon="2.28854">
        <ele>575</ele>
        <time>2022-06-27T03:26:16+02:00</time>
      </trkpt>
      <trkpt lat="45.00992" lon="2.28759">
        <ele>573</ele>
        <time>2022-06-27T03:27:38+02:00</time>
      </trkpt>
      <trkpt lat="45.00967" lon="2.28735">
        <ele>569</ele>
        <time>2022-06-27T03:28:12+02:00</time>
      </trkpt>
      <trkpt lat="45.00936" lon="2.2871">
        <ele>563</ele>
        <time>2022-06-27T03:28:53+02:00</time>
      </trkpt>
      <trkpt lat="45.0091" lon="2.28681">
        <ele>554</ele>
        <time>2022-06-27T03:29:31+02:00</time>
      </trkpt>
      <trkpt lat="45.00891" lon="2.28636">
        <ele>535</ele>
        <time>2022-06-27T03:30:13+02:00</time>
      </trkpt>
      <trkpt lat="45.00883" lon="2.28636">
        <ele>533</ele>
        <time>2022-06-27T03:30:22+02:00</time>
      </trkpt>
      <trkpt lat="45.00875" lon="2.28646">
        <ele>534</ele>
        <time>2022-06-27T03:30:45+02:00</time>
      </trkpt>
      <trkpt lat="45.0086" lon="2.28681">
        <ele>539</ele>
        <time>2022-06-27T03:32:09+02:00</time>
      </trkpt>
      <trkpt lat="45.0085" lon="2.28705">
        <ele>542</ele>
        <time>2022-06-27T03:33:02+02:00</time>
      </trkpt>
      <trkpt lat="45.0084" lon="2.28719">
        <ele>542</ele>
        <time>2022-06-27T03:33:18+02:00</time>
      </trkpt>
      <trkpt lat="45.00827" lon="2.28731">
        <ele>541</ele>
        <time>2022-06-27T03:33:36+02:00</time>
      </trkpt>
      <trkpt lat="45.00812" lon="2.28742">
        <ele>539</ele>
        <time>2022-06-27T03:33:55+02:00</time>
      </trkpt>
      <trkpt lat="45.00797" lon="2.28754">
        <ele>537</ele>
        <time>2022-06-27T03:34:16+02:00</time>
      </trkpt>
      <trkpt lat="45.00778" lon="2.28762">
        <ele>532</ele>
        <time>2022-06-27T03:34:38+02:00</time>
      </trkpt>
      <trkpt lat="45.00771" lon="2.28761">
        <ele>529</ele>
        <time>2022-06-27T03:34:47+02:00</time>
      </trkpt>
      <trkpt lat="45.0078" lon="2.28752">
        <ele>531</ele>
        <time>2022-06-27T03:35:20+02:00</time>
      </trkpt>
      <trkpt lat="45.0079" lon="2.28742">
        <ele>532</ele>
        <time>2022-06-27T03:35:45+02:00</time>
      </trkpt>
      <trkpt lat="45.00801" lon="2.28727">
        <ele>532</ele>
        <time>2022-06-27T03:36:02+02:00</time>
      </trkpt>
      <trkpt lat="45.00814" lon="2.28708">
        <ele>532</ele>
        <time>2022-06-27T03:36:24+02:00</time>
      </trkpt>
      <trkpt lat="45.00824" lon="2.28692">
        <ele>531</ele>
        <time>2022-06-27T03:36:41+02:00</time>
      </trkpt>
      <trkpt lat="45.00832" lon="2.28673">
        <ele>529</ele>
        <time>2022-06-27T03:37:00+02:00</time>
      </trkpt>
      <trkpt lat="45.00834" lon="2.28657">
        <ele>526</ele>
        <time>2022-06-27T03:37:12+02:00</time>
      </trkpt>
      <trkpt lat="45.00831" lon="2.28657">
        <ele>525</ele>
        <time>2022-06-27T03:37:16+02:00</time>
      </trkpt>
      <trkpt lat="45.00822" lon="2.28676">
        <ele>527</ele>
        <time>2022-06-27T03:37:55+02:00</time>
      </trkpt>
      <trkpt lat="45.00815" lon="2.28687">
        <ele>528</ele>
        <time>2022-06-27T03:38:17+02:00</time>
      </trkpt>
      <trkpt lat="45.00802" lon="2.28696">
        <ele>526</ele>
        <time>2022-06-27T03:38:34+02:00</time>
      </trkpt>
      <trkpt lat="45.00787" lon="2.28703">
        <ele>523</ele>
        <time>2022-06-27T03:38:52+02:00</time>
      </trkpt>
      <trkpt lat="45.00754" lon="2.28703">
        <ele>513</ele>
        <time>2022-06-27T03:39:30+02:00</time>
      </trkpt>
      <trkpt lat="45.0073" lon="2.287">
        <ele>510</ele>
        <time>2022-06-27T03:39:58+02:00</time>
      </trkpt>
      <trkpt lat="45.00714" lon="2.28699">
        <ele>509</ele>
        <time>2022-06-27T03:40:16+02:00</time>
      </trkpt>
      <trkpt lat="45.007" lon="2.28706">
        <ele>508</ele>
        <time>2022-06-27T03:40:33+02:00</time>
      </trkpt>
      <trkpt lat="45.00694" lon="2.28717">
        <ele>507</ele>
        <time>2022-06-27T03:40:44+02:00</time>
      </trkpt>
      <trkpt lat="45.00695" lon="2.28741">
        <ele>508</ele>
        <time>2022-06-27T03:41:14+02:00</time>
      </trkpt>
      <trkpt lat="45.00688" lon="2.28747">
        <ele>507</ele>
        <time>2022-06-27T03:41:24+02:00</time>
      </trkpt>
      <trkpt lat="45.0067" lon="2.28756">
        <ele>503</ele>
        <time>2022-06-27T03:41:45+02:00</time>
      </trkpt>
      <trkpt lat="45.00646" lon="2.28775">
        <ele>509</ele>
        <time>2022-06-27T03:43:18+02:00</time>
      </trkpt>
      <trkpt lat="45.00644" lon="2.28793">
        <ele>511</ele>
        <time>2022-06-27T03:43:54+02:00</time>
      </trkpt>
      <trkpt lat="45.00636" lon="2.28811">
        <ele>514</ele>
        <time>2022-06-27T03:44:42+02:00</time>
      </trkpt>
      <trkpt lat="45.00619" lon="2.28839">
        <ele>518</ele>
        <time>2022-06-27T03:45:53+02:00</time>
      </trkpt>
      <trkpt lat="45.00595" lon="2.28858">
        <ele>519</ele>
        <time>2022-06-27T03:46:35+02:00</time>
      </trkpt>
      <trkpt lat="45.00584" lon="2.28865">
        <ele>519</ele>
        <time>2022-06-27T03:46:49+02:00</time>
      </trkpt>
      <trkpt lat="45.00578" lon="2.28864">
        <ele>521</ele>
        <time>2022-06-27T03:47:17+02:00</time>
      </trkpt>
      <trkpt lat="45.00578" lon="2.28847">
        <ele>524</ele>
        <time>2022-06-27T03:48:02+02:00</time>
      </trkpt>
      <trkpt lat="45.00581" lon="2.28795">
        <ele>524</ele>
        <time>2022-06-27T03:48:44+02:00</time>
      </trkpt>
      <trkpt lat="45.0058" lon="2.28777">
        <ele>524</ele>
        <time>2022-06-27T03:48:59+02:00</time>
      </trkpt>
      <trkpt lat="45.00575" lon="2.28773">
        <ele>525</ele>
        <time>2022-06-27T03:49:16+02:00</time>
      </trkpt>
      <trkpt lat="45.00564" lon="2.28772">
        <ele>527</ele>
        <time>2022-06-27T03:49:49+02:00</time>
      </trkpt>
      <trkpt lat="45.00556" lon="2.28777">
        <ele>529</ele>
        <time>2022-06-27T03:50:19+02:00</time>
      </trkpt>
      <trkpt lat="45.0055" lon="2.28789">
        <ele>531</ele>
        <time>2022-06-27T03:50:52+02:00</time>
      </trkpt>
      <trkpt lat="45.00545" lon="2.28802">
        <ele>533</ele>
        <time>2022-06-27T03:51:25+02:00</time>
      </trkpt>
      <trkpt lat="45.00529" lon="2.28828">
        <ele>539</ele>
        <time>2022-06-27T03:52:55+02:00</time>
      </trkpt>
      <trkpt lat="45.00524" lon="2.28831">
        <ele>540</ele>
        <time>2022-06-27T03:53:11+02:00</time>
      </trkpt>
      <trkpt lat="45.00501" lon="2.28822">
        <ele>546</ele>
        <time>2022-06-27T03:54:40+02:00</time>
      </trkpt>
      <trkpt lat="45.00484" lon="2.2882">
        <ele>549</ele>
        <time>2022-06-27T03:55:31+02:00</time>
      </trkpt>
      <trkpt lat="45.00457" lon="2.28815">
        <ele>554</ele>
        <time>2022-06-27T03:56:53+02:00</time>
      </trkpt>
      <trkpt lat="45.00421" lon="2.28831">
        <ele>564</ele>
        <time>2022-06-27T03:59:18+02:00</time>
      </trkpt>
      <trkpt lat="45.00406" lon="2.28844">
        <ele>566</ele>
        <time>2022-06-27T03:59:59+02:00</time>
      </trkpt>
      <trkpt lat="45.00384" lon="2.28856">
        <ele>570</ele>
        <time>2022-06-27T04:01:07+02:00</time>
      </trkpt>
      <trkpt lat="45.00346" lon="2.28853">
        <ele>577</ele>
        <time>2022-06-27T04:03:03+02:00</time>
      </trkpt>
      <trkpt lat="45.00268" lon="2.28843">
        <ele>595</ele>
        <time>2022-06-27T04:07:37+02:00</time>
      </trkpt>
      <trkpt lat="45.00237" lon="2.28845">
        <ele>601</ele>
        <time>2022-06-27T04:09:14+02:00</time>
      </trkpt>
      <trkpt lat="45.00186" lon="2.28846">
        <ele>609</ele>
        <time>2022-06-27T04:11:35+02:00</time>
      </trkpt>
      <trkpt lat="45.00129" lon="2.28841">
        <ele>617</ele>
        <time>2022-06-27T04:14:03+02:00</time>
      </trkpt>
      <trkpt lat="45.00089" lon="2.28832">
        <ele>621</ele>
        <time>2022-06-27T04:15:30+02:00</time>
      </trkpt>
      <trkpt lat="45.00049" lon="2.2883">
        <ele>624</ele>
        <time>2022-06-27T04:16:47+02:00</time>
      </trkpt>
      <trkpt lat="44.99964" lon="2.28812">
        <ele>626</ele>
        <time>2022-06-27T04:18:45+02:00</time>
      </trkpt>
      <trkpt lat="44.99919" lon="2.2879">
        <ele>624</ele>
        <time>2022-06-27T04:19:40+02:00</time>
      </trkpt>
      <trkpt lat="44.99967" lon="2.28622">
        <ele>622</ele>
        <time>2022-06-27T04:22:07+02:00</time>
      </trkpt>
      <trkpt lat="44.99994" lon="2.28554">
        <ele>621</ele>
        <time>2022-06-27T04:23:11+02:00</time>
      </trkpt>
      <trkpt lat="45.00047" lon="2.2841">
        <ele>615</ele>
        <time>2022-06-27T04:25:22+02:00</time>
      </trkpt>
      <trkpt lat="45.0006" lon="2.28358">
        <ele>612</ele>
        <time>2022-06-27T04:26:07+02:00</time>
      </trkpt>
      <trkpt lat="45.00064" lon="2.28308">
        <ele>611</ele>
        <time>2022-06-27T04:26:47+02:00</time>
      </trkpt>
      <trkpt lat="45.00048" lon="2.28315">
        <ele>612</ele>
        <time>2022-06-27T04:27:17+02:00</time>
      </trkpt>
      <trkpt lat="45.0003" lon="2.28322">
        <ele>613</ele>
        <time>2022-06-27T04:27:49+02:00</time>
      </trkpt>
      <trkpt lat="44.99992" lon="2.28317">
        <ele>613</ele>
        <time>2022-06-27T04:28:32+02:00</time>
      </trkpt>
      <trkpt lat="44.9997" lon="2.28315">
        <ele>610</ele>
        <time>2022-06-27T04:28:57+02:00</time>
      </trkpt>
      <trkpt lat="44.99908" lon="2.28339">
        <ele>604</ele>
        <time>2022-06-27T04:30:10+02:00</time>
      </trkpt>
      <trkpt lat="44.99882" lon="2.28362">
        <ele>600</ele>
        <time>2022-06-27T04:30:45+02:00</time>
      </trkpt>
      <trkpt lat="44.99849" lon="2.28384">
        <ele>597</ele>
        <time>2022-06-27T04:31:27+02:00</time>
      </trkpt>
      <trkpt lat="44.9983" lon="2.28391">
        <ele>596</ele>
        <time>2022-06-27T04:31:49+02:00</time>
      </trkpt>
      <trkpt lat="44.99791" lon="2.28397">
        <ele>599</ele>
        <time>2022-06-27T04:33:05+02:00</time>
      </trkpt>
      <trkpt lat="44.99786" lon="2.28393">
        <ele>600</ele>
        <time>2022-06-27T04:33:22+02:00</time>
      </trkpt>
      <trkpt lat="44.99762" lon="2.28374">
        <ele>600</ele>
        <time>2022-06-27T04:33:53+02:00</time>
      </trkpt>
      <trkpt lat="44.99753" lon="2.28368">
        <ele>599</ele>
        <time>2022-06-27T04:34:05+02:00</time>
      </trkpt>
      <trkpt lat="44.99706" lon="2.28405">
        <ele>602</ele>
        <time>2022-06-27T04:35:37+02:00</time>
      </trkpt>
      <trkpt lat="44.99679" lon="2.28441">
        <ele>605</ele>
        <time>2022-06-27T04:36:51+02:00</time>
      </trkpt>
      <trkpt lat="44.9964" lon="2.28476">
        <ele>607</ele>
        <time>2022-06-27T04:38:04+02:00</time>
      </trkpt>
      <trkpt lat="44.99616" lon="2.28493">
        <ele>607</ele>
        <time>2022-06-27T04:38:34+02:00</time>
      </trkpt>
      <trkpt lat="44.99599" lon="2.28499">
        <ele>606</ele>
        <time>2022-06-27T04:38:54+02:00</time>
      </trkpt>
      <trkpt lat="44.99571" lon="2.28507">
        <ele>604</ele>
        <time>2022-06-27T04:39:27+02:00</time>
      </trkpt>
      <trkpt lat="44.9954" lon="2.28498">
        <ele>601</ele>
        <time>2022-06-27T04:40:04+02:00</time>
      </trkpt>
      <trkpt lat="44.99518" lon="2.28497">
        <ele>600</ele>
        <time>2022-06-27T04:40:28+02:00</time>
      </trkpt>
      <trkpt lat="44.99486" lon="2.2851">
        <ele>600</ele>
        <time>2022-06-27T04:41:07+02:00</time>
      </trkpt>
      <trkpt lat="44.99446" lon="2.28542">
        <ele>602</ele>
        <time>2022-06-27T04:42:19+02:00</time>
      </trkpt>
      <trkpt lat="44.99435" lon="2.28558">
        <ele>603</ele>
        <time>2022-06-27T04:42:48+02:00</time>
      </trkpt>
      <trkpt lat="44.99411" lon="2.28549">
        <ele>601</ele>
        <time>2022-06-27T04:43:17+02:00</time>
      </trkpt>
      <trkpt lat="44.99349" lon="2.2856">
        <ele>596</ele>
        <time>2022-06-27T04:44:28+02:00</time>
      </trkpt>
      <trkpt lat="44.99306" lon="2.28571">
        <ele>591</ele>
        <time>2022-06-27T04:45:19+02:00</time>
      </trkpt>
      <trkpt lat="44.99274" lon="2.28599">
        <ele>587</ele>
        <time>2022-06-27T04:46:02+02:00</time>
      </trkpt>
      <trkpt lat="44.99226" lon="2.28656">
        <ele>584</ele>
        <time>2022-06-27T04:47:13+02:00</time>
      </trkpt>
      <trkpt lat="44.99193" lon="2.28703">
        <ele>584</ele>
        <time>2022-06-27T04:48:07+02:00</time>
      </trkpt>
      <trkpt lat="44.99172" lon="2.2873">
        <ele>583</ele>
        <time>2022-06-27T04:48:39+02:00</time>
      </trkpt>
      <trkpt lat="44.9915" lon="2.28748">
        <ele>584</ele>
        <time>2022-06-27T04:49:19+02:00</time>
      </trkpt>
      <trkpt lat="44.99125" lon="2.28753">
        <ele>585</ele>
        <time>2022-06-27T04:49:58+02:00</time>
      </trkpt>
      <trkpt lat="44.991" lon="2.2873">
        <ele>584</ele>
        <time>2022-06-27T04:50:32+02:00</time>
      </trkpt>
      <trkpt lat="44.99087" lon="2.28713">
        <ele>583</ele>
        <time>2022-06-27T04:50:52+02:00</time>
      </trkpt>
      <trkpt lat="44.99015" lon="2.28681">
        <ele>581</ele>
        <time>2022-06-27T04:52:18+02:00</time>
      </trkpt>
      <trkpt lat="44.98951" lon="2.28682">
        <ele>579</ele>
        <time>2022-06-27T04:53:31+02:00</time>
      </trkpt>
      <trkpt lat="44.98941" lon="2.28684">
        <ele>579</ele>
        <time>2022-06-27T04:53:43+02:00</time>
      </trkpt>
      <trkpt lat="44.9894" lon="2.2872">
        <ele>580</ele>
        <time>2022-06-27T04:54:22+02:00</time>
      </trkpt>
      <trkpt lat="44.98935" lon="2.2876">
        <ele>582</ele>
        <time>2022-06-27T04:55:16+02:00</time>
      </trkpt>
      <trkpt lat="44.98934" lon="2.28802">
        <ele>583</ele>
        <time>2022-06-27T04:56:00+02:00</time>
      </trkpt>
      <trkpt lat="44.98934" lon="2.28894">
        <ele>587</ele>
        <time>2022-06-27T04:57:56+02:00</time>
      </trkpt>
      <trkpt lat="44.98924" lon="2.28973">
        <ele>590</ele>
        <time>2022-06-27T04:59:32+02:00</time>
      </trkpt>
      <trkpt lat="44.98926" lon="2.29021">
        <ele>592</ele>
        <time>2022-06-27T05:00:31+02:00</time>
      </trkpt>
      <trkpt lat="44.98946" lon="2.29144">
        <ele>599</ele>
        <time>2022-06-27T05:03:25+02:00</time>
      </trkpt>
      <trkpt lat="44.98951" lon="2.29181">
        <ele>600</ele>
        <time>2022-06-27T05:04:06+02:00</time>
      </trkpt>
      <trkpt lat="44.98952" lon="2.29298">
        <ele>601</ele>
        <time>2022-06-27T05:05:51+02:00</time>
      </trkpt>
      <trkpt lat="44.98961" lon="2.29343">
        <ele>602</ele>
        <time>2022-06-27T05:06:40+02:00</time>
      </trkpt>
      <trkpt lat="44.98975" lon="2.29367">
        <ele>602</ele>
        <time>2022-06-27T05:07:05+02:00</time>
      </trkpt>
      <trkpt lat="44.98985" lon="2.29385">
        <ele>602</ele>
        <time>2022-06-27T05:07:23+02:00</time>
      </trkpt>
      <trkpt lat="44.98991" lon="2.29453">
        <ele>604</ele>
        <time>2022-06-27T05:08:39+02:00</time>
      </trkpt>
      <trkpt lat="44.98953" lon="2.29451">
        <ele>602</ele>
        <time>2022-06-27T05:09:23+02:00</time>
      </trkpt>
      <trkpt lat="44.98904" lon="2.29432">
        <ele>601</ele>
        <time>2022-06-27T05:10:21+02:00</time>
      </trkpt>
      <trkpt lat="44.9868" lon="2.2939">
        <ele>584</ele>
        <time>2022-06-27T05:14:40+02:00</time>
      </trkpt>
      <trkpt lat="44.98623" lon="2.29385">
        <ele>575</ele>
        <time>2022-06-27T05:15:45+02:00</time>
      </trkpt>
      <trkpt lat="44.98564" lon="2.29443">
        <ele>569</ele>
        <time>2022-06-27T05:17:07+02:00</time>
      </trkpt>
      <trkpt lat="44.98438" lon="2.29525">
        <ele>557</ele>
        <time>2022-06-27T05:19:46+02:00</time>
      </trkpt>
      <trkpt lat="44.98413" lon="2.29567">
        <ele>557</ele>
        <time>2022-06-27T05:20:30+02:00</time>
      </trkpt>
      <trkpt lat="44.98401" lon="2.29589">
        <ele>561</ele>
        <time>2022-06-27T05:21:34+02:00</time>
      </trkpt>
      <trkpt lat="44.98393" lon="2.29599">
        <ele>564</ele>
        <time>2022-06-27T05:22:17+02:00</time>
      </trkpt>
      <trkpt lat="44.98393" lon="2.29605">
        <ele>565</ele>
        <time>2022-06-27T05:22:32+02:00</time>
      </trkpt>
      <trkpt lat="44.98398" lon="2.29614">
        <ele>565</ele>
        <time>2022-06-27T05:22:42+02:00</time>
      </trkpt>
      <trkpt lat="44.98424" lon="2.29628">
        <ele>564</ele>
        <time>2022-06-27T05:23:14+02:00</time>
      </trkpt>
      <trkpt lat="44.98452" lon="2.2966">
        <ele>568</ele>
        <time>2022-06-27T05:24:36+02:00</time>
      </trkpt>
      <trkpt lat="44.98475" lon="2.29693">
        <ele>572</ele>
        <time>2022-06-27T05:25:55+02:00</time>
      </trkpt>
      <trkpt lat="44.98485" lon="2.29711">
        <ele>573</ele>
        <time>2022-06-27T05:26:23+02:00</time>
      </trkpt>
      <trkpt lat="44.98491" lon="2.29729">
        <ele>574</ele>
        <time>2022-06-27T05:26:49+02:00</time>
      </trkpt>
      <trkpt lat="44.98488" lon="2.29749">
        <ele>577</ele>
        <time>2022-06-27T05:27:36+02:00</time>
      </trkpt>
      <trkpt lat="44.98479" lon="2.29766">
        <ele>578</ele>
        <time>2022-06-27T05:28:04+02:00</time>
      </trkpt>
      <trkpt lat="44.98464" lon="2.29775">
        <ele>582</ele>
        <time>2022-06-27T05:29:04+02:00</time>
      </trkpt>
      <trkpt lat="44.98446" lon="2.29772">
        <ele>586</ele>
        <time>2022-06-27T05:30:05+02:00</time>
      </trkpt>
      <trkpt lat="44.98437" lon="2.29779">
        <ele>588</ele>
        <time>2022-06-27T05:30:37+02:00</time>
      </trkpt>
      <trkpt lat="44.98412" lon="2.2979">
        <ele>594</ele>
        <time>2022-06-27T05:32:09+02:00</time>
      </trkpt>
      <trkpt lat="44.984" lon="2.29797">
        <ele>595</ele>
        <time>2022-06-27T05:32:34+02:00</time>
      </trkpt>
      <trkpt lat="44.98353" lon="2.29831">
        <ele>604</ele>
        <time>2022-06-27T05:35:07+02:00</time>
      </trkpt>
      <trkpt lat="44.98305" lon="2.29876">
        <ele>611</ele>
        <time>2022-06-27T05:37:25+02:00</time>
      </trkpt>
      <trkpt lat="44.98244" lon="2.29948">
        <ele>618</ele>
        <time>2022-06-27T05:40:08+02:00</time>
      </trkpt>
      <trkpt lat="44.98172" lon="2.30021">
        <ele>618</ele>
        <time>2022-06-27T05:41:49+02:00</time>
      </trkpt>
      <trkpt lat="44.98115" lon="2.30088">
        <ele>618</ele>
        <time>2022-06-27T05:43:13+02:00</time>
      </trkpt>
      <trkpt lat="44.98091" lon="2.30109">
        <ele>619</ele>
        <time>2022-06-27T05:43:55+02:00</time>
      </trkpt>
      <trkpt lat="44.98066" lon="2.30125">
        <ele>620</ele>
        <time>2022-06-27T05:44:37+02:00</time>
      </trkpt>
      <trkpt lat="44.9804" lon="2.30138">
        <ele>621</ele>
        <time>2022-06-27T05:45:18+02:00</time>
      </trkpt>
      <trkpt lat="44.97986" lon="2.30191">
        <ele>621</ele>
        <time>2022-06-27T05:46:33+02:00</time>
      </trkpt>
      <trkpt lat="44.97949" lon="2.30221">
        <ele>624</ele>
        <time>2022-06-27T05:47:52+02:00</time>
      </trkpt>
      <trkpt lat="44.97927" lon="2.30241">
        <ele>626</ele>
        <time>2022-06-27T05:48:43+02:00</time>
      </trkpt>
      <trkpt lat="44.97897" lon="2.30291">
        <ele>626</ele>
        <time>2022-06-27T05:49:36+02:00</time>
      </trkpt>
      <trkpt lat="44.97862" lon="2.30336">
        <ele>626</ele>
        <time>2022-06-27T05:50:30+02:00</time>
      </trkpt>
      <trkpt lat="44.97831" lon="2.30378">
        <ele>628</ele>
        <time>2022-06-27T05:51:40+02:00</time>
      </trkpt>
      <trkpt lat="44.97814" lon="2.30408">
        <ele>628</ele>
        <time>2022-06-27T05:52:10+02:00</time>
      </trkpt>
      <trkpt lat="44.97801" lon="2.30403">
        <ele>629</ele>
        <time>2022-06-27T05:52:36+02:00</time>
      </trkpt>
      <trkpt lat="44.97788" lon="2.30464">
        <ele>633</ele>
        <time>2022-06-27T05:54:09+02:00</time>
      </trkpt>
      <trkpt lat="44.97744" lon="2.30479">
        <ele>637</ele>
        <time>2022-06-27T05:55:42+02:00</time>
      </trkpt>
      <trkpt lat="44.97712" lon="2.3049">
        <ele>637</ele>
        <time>2022-06-27T05:56:19+02:00</time>
      </trkpt>
      <trkpt lat="44.97702" lon="2.30504">
        <ele>638</ele>
        <time>2022-06-27T05:56:45+02:00</time>
      </trkpt>
      <trkpt lat="44.97701" lon="2.30545">
        <ele>640</ele>
        <time>2022-06-27T05:57:38+02:00</time>
      </trkpt>
      <trkpt lat="44.97696" lon="2.30588">
        <ele>642</ele>
        <time>2022-06-27T05:58:34+02:00</time>
      </trkpt>
      <trkpt lat="44.97658" lon="2.30715">
        <ele>643</ele>
        <time>2022-06-27T06:00:36+02:00</time>
      </trkpt>
      <trkpt lat="44.97641" lon="2.30767">
        <ele>643</ele>
        <time>2022-06-27T06:01:22+02:00</time>
      </trkpt>
      <trkpt lat="44.97596" lon="2.30966">
        <ele>646</ele>
        <time>2022-06-27T06:04:42+02:00</time>
      </trkpt>
      <trkpt lat="44.97575" lon="2.31051">
        <ele>645</ele>
        <time>2022-06-27T06:05:55+02:00</time>
      </trkpt>
      <trkpt lat="44.97553" lon="2.31254">
        <ele>647</ele>
        <time>2022-06-27T06:09:02+02:00</time>
      </trkpt>
      <trkpt lat="44.97538" lon="2.31333">
        <ele>647</ele>
        <time>2022-06-27T06:10:08+02:00</time>
      </trkpt>
      <trkpt lat="44.9752" lon="2.3141">
        <ele>647</ele>
        <time>2022-06-27T06:11:14+02:00</time>
      </trkpt>
      <trkpt lat="44.97491" lon="2.31477">
        <ele>646</ele>
        <time>2022-06-27T06:12:17+02:00</time>
      </trkpt>
      <trkpt lat="44.97513" lon="2.31565">
        <ele>644</ele>
        <time>2022-06-27T06:13:32+02:00</time>
      </trkpt>
      <trkpt lat="44.97518" lon="2.31599">
        <ele>644</ele>
        <time>2022-06-27T06:14:00+02:00</time>
      </trkpt>
      <trkpt lat="44.97508" lon="2.31615">
        <ele>646</ele>
        <time>2022-06-27T06:14:38+02:00</time>
      </trkpt>
      <trkpt lat="44.97477" lon="2.31581">
        <ele>646</ele>
        <time>2022-06-27T06:15:23+02:00</time>
      </trkpt>
      <trkpt lat="44.97459" lon="2.31564">
        <ele>646</ele>
        <time>2022-06-27T06:15:48+02:00</time>
      </trkpt>
      <trkpt lat="44.97448" lon="2.31576">
        <ele>647</ele>
        <time>2022-06-27T06:16:13+02:00</time>
      </trkpt>
      <trkpt lat="44.97435" lon="2.31607">
        <ele>650</ele>
        <time>2022-06-27T06:17:13+02:00</time>
      </trkpt>
      <trkpt lat="44.97427" lon="2.31616">
        <ele>651</ele>
        <time>2022-06-27T06:17:35+02:00</time>
      </trkpt>
      <trkpt lat="44.97418" lon="2.31632">
        <ele>653</ele>
        <time>2022-06-27T06:18:12+02:00</time>
      </trkpt>
      <trkpt lat="44.9741" lon="2.31647">
        <ele>654</ele>
        <time>2022-06-27T06:18:38+02:00</time>
      </trkpt>
      <trkpt lat="44.97408" lon="2.31656">
        <ele>655</ele>
        <time>2022-06-27T06:18:56+02:00</time>
      </trkpt>
      <trkpt lat="44.97414" lon="2.31679">
        <ele>657</ele>
        <time>2022-06-27T06:19:36+02:00</time>
      </trkpt>
      <trkpt lat="44.97421" lon="2.3169">
        <ele>658</ele>
        <time>2022-06-27T06:19:59+02:00</time>
      </trkpt>
      <trkpt lat="44.97421" lon="2.31706">
        <ele>659</ele>
        <time>2022-06-27T06:20:22+02:00</time>
      </trkpt>
      <trkpt lat="44.97417" lon="2.31759">
        <ele>662</ele>
        <time>2022-06-27T06:21:36+02:00</time>
      </trkpt>
      <trkpt lat="44.97413" lon="2.3181">
        <ele>664</ele>
        <time>2022-06-27T06:22:38+02:00</time>
      </trkpt>
      <trkpt lat="44.97402" lon="2.31863">
        <ele>663</ele>
        <time>2022-06-27T06:23:22+02:00</time>
      </trkpt>
      <trkpt lat="44.97395" lon="2.31872">
        <ele>663</ele>
        <time>2022-06-27T06:23:33+02:00</time>
      </trkpt>
      <trkpt lat="44.97384" lon="2.31893">
        <ele>662</ele>
        <time>2022-06-27T06:23:55+02:00</time>
      </trkpt>
      <trkpt lat="44.97354" lon="2.31935">
        <ele>661</ele>
        <time>2022-06-27T06:24:43+02:00</time>
      </trkpt>
      <trkpt lat="44.97324" lon="2.31991">
        <ele>662</ele>
        <time>2022-06-27T06:25:51+02:00</time>
      </trkpt>
      <trkpt lat="44.97301" lon="2.32039">
        <ele>660</ele>
        <time>2022-06-27T06:26:38+02:00</time>
      </trkpt>
      <trkpt lat="44.97274" lon="2.32081">
        <ele>660</ele>
        <time>2022-06-27T06:27:24+02:00</time>
      </trkpt>
      <trkpt lat="44.97246" lon="2.32169">
        <ele>660</ele>
        <time>2022-06-27T06:28:42+02:00</time>
      </trkpt>
      <trkpt lat="44.97245" lon="2.32191">
        <ele>661</ele>
        <time>2022-06-27T06:29:11+02:00</time>
      </trkpt>
      <trkpt lat="44.97258" lon="2.3224">
        <ele>663</ele>
        <time>2022-06-27T06:30:13+02:00</time>
      </trkpt>
      <trkpt lat="44.97268" lon="2.32268">
        <ele>663</ele>
        <time>2022-06-27T06:30:39+02:00</time>
      </trkpt>
      <trkpt lat="44.97272" lon="2.32292">
        <ele>664</ele>
        <time>2022-06-27T06:31:09+02:00</time>
      </trkpt>
      <trkpt lat="44.97283" lon="2.32357">
        <ele>665</ele>
        <time>2022-06-27T06:32:13+02:00</time>
      </trkpt>
      <trkpt lat="44.97288" lon="2.32393">
        <ele>666</ele>
        <time>2022-06-27T06:32:53+02:00</time>
      </trkpt>
      <trkpt lat="44.97291" lon="2.32426">
        <ele>667</ele>
        <time>2022-06-27T06:33:31+02:00</time>
      </trkpt>
      <trkpt lat="44.97317" lon="2.32503">
        <ele>672</ele>
        <time>2022-06-27T06:35:31+02:00</time>
      </trkpt>
      <trkpt lat="44.97329" lon="2.32517">
        <ele>674</ele>
        <time>2022-06-27T06:36:09+02:00</time>
      </trkpt>
      <trkpt lat="44.97369" lon="2.32565">
        <ele>676</ele>
        <time>2022-06-27T06:37:31+02:00</time>
      </trkpt>
      <trkpt lat="44.97399" lon="2.32606">
        <ele>677</ele>
        <time>2022-06-27T06:38:28+02:00</time>
      </trkpt>
      <trkpt lat="44.97414" lon="2.32635">
        <ele>677</ele>
        <time>2022-06-27T06:38:57+02:00</time>
      </trkpt>
      <trkpt lat="44.97472" lon="2.32775">
        <ele>679</ele>
        <time>2022-06-27T06:41:29+02:00</time>
      </trkpt>
      <trkpt lat="44.97496" lon="2.32827">
        <ele>679</ele>
        <time>2022-06-27T06:42:19+02:00</time>
      </trkpt>
      <trkpt lat="44.97509" lon="2.32886">
        <ele>680</ele>
        <time>2022-06-27T06:43:19+02:00</time>
      </trkpt>
      <trkpt lat="44.97533" lon="2.32963">
        <ele>680</ele>
        <time>2022-06-27T06:44:27+02:00</time>
      </trkpt>
      <trkpt lat="44.97548" lon="2.33009">
        <ele>680</ele>
        <time>2022-06-27T06:45:08+02:00</time>
      </trkpt>
      <trkpt lat="44.97568" lon="2.33101">
        <ele>682</ele>
        <time>2022-06-27T06:46:46+02:00</time>
      </trkpt>
      <trkpt lat="44.97574" lon="2.33181">
        <ele>683</ele>
        <time>2022-06-27T06:48:01+02:00</time>
      </trkpt>
      <trkpt lat="44.97588" lon="2.33217">
        <ele>682</ele>
        <time>2022-06-27T06:48:35+02:00</time>
      </trkpt>
      <trkpt lat="44.97593" lon="2.33249">
        <ele>681</ele>
        <time>2022-06-27T06:49:02+02:00</time>
      </trkpt>
      <trkpt lat="44.976" lon="2.33278">
        <ele>680</ele>
        <time>2022-06-27T06:49:27+02:00</time>
      </trkpt>
      <trkpt lat="44.97628" lon="2.3333">
        <ele>675</ele>
        <time>2022-06-27T06:50:20+02:00</time>
      </trkpt>
      <trkpt lat="44.97649" lon="2.3338">
        <ele>674</ele>
        <time>2022-06-27T06:51:07+02:00</time>
      </trkpt>
      <trkpt lat="44.97666" lon="2.33431">
        <ele>673</ele>
        <time>2022-06-27T06:51:52+02:00</time>
      </trkpt>
      <trkpt lat="44.97687" lon="2.33498">
        <ele>675</ele>
        <time>2022-06-27T06:53:12+02:00</time>
      </trkpt>
      <trkpt lat="44.97718" lon="2.33541">
        <ele>677</ele>
        <time>2022-06-27T06:54:22+02:00</time>
      </trkpt>
      <trkpt lat="44.9772" lon="2.33548">
        <ele>677</ele>
        <time>2022-06-27T06:54:28+02:00</time>
      </trkpt>
      <trkpt lat="44.977" lon="2.33591">
        <ele>679</ele>
        <time>2022-06-27T06:55:31+02:00</time>
      </trkpt>
      <trkpt lat="44.97696" lon="2.33647">
        <ele>681</ele>
        <time>2022-06-27T06:56:37+02:00</time>
      </trkpt>
      <trkpt lat="44.97704" lon="2.33691">
        <ele>684</ele>
        <time>2022-06-27T06:57:44+02:00</time>
      </trkpt>
      <trkpt lat="44.97712" lon="2.33722">
        <ele>685</ele>
        <time>2022-06-27T06:58:21+02:00</time>
      </trkpt>
      <trkpt lat="44.97725" lon="2.33773">
        <ele>687</ele>
        <time>2022-06-27T06:59:25+02:00</time>
      </trkpt>
      <trkpt lat="44.97734" lon="2.33834">
        <ele>688</ele>
        <time>2022-06-27T07:00:26+02:00</time>
      </trkpt>
      <trkpt lat="44.97734" lon="2.33885">
        <ele>688</ele>
        <time>2022-06-27T07:01:07+02:00</time>
      </trkpt>
      <trkpt lat="44.97722" lon="2.33967">
        <ele>689</ele>
        <time>2022-06-27T07:02:25+02:00</time>
      </trkpt>
      <trkpt lat="44.97705" lon="2.34041">
        <ele>688</ele>
        <time>2022-06-27T07:03:28+02:00</time>
      </trkpt>
      <trkpt lat="44.97692" lon="2.34111">
        <ele>688</ele>
        <time>2022-06-27T07:04:27+02:00</time>
      </trkpt>
      <trkpt lat="44.97666" lon="2.34176">
        <ele>690</ele>
        <time>2022-06-27T07:05:48+02:00</time>
      </trkpt>
      <trkpt lat="44.97654" lon="2.34239">
        <ele>693</ele>
        <time>2022-06-27T07:07:12+02:00</time>
      </trkpt>
      <trkpt lat="44.97646" lon="2.34303">
        <ele>694</ele>
        <time>2022-06-27T07:08:15+02:00</time>
      </trkpt>
      <trkpt lat="44.97622" lon="2.34412">
        <ele>695</ele>
        <time>2022-06-27T07:09:57+02:00</time>
      </trkpt>
      <trkpt lat="44.97619" lon="2.34421">
        <ele>695</ele>
        <time>2022-06-27T07:10:06+02:00</time>
      </trkpt>
      <trkpt lat="44.97575" lon="2.34428">
        <ele>695</ele>
        <time>2022-06-27T07:10:57+02:00</time>
      </trkpt>
      <trkpt lat="44.9752" lon="2.34447">
        <ele>695</ele>
        <time>2022-06-27T07:12:01+02:00</time>
      </trkpt>
      <trkpt lat="44.97478" lon="2.34476">
        <ele>695</ele>
        <time>2022-06-27T07:12:55+02:00</time>
      </trkpt>
      <trkpt lat="44.97442" lon="2.34535">
        <ele>693</ele>
        <time>2022-06-27T07:13:58+02:00</time>
      </trkpt>
      <trkpt lat="44.97366" lon="2.34703">
        <ele>683</ele>
        <time>2022-06-27T07:16:39+02:00</time>
      </trkpt>
      <trkpt lat="44.97336" lon="2.34696">
        <ele>681</ele>
        <time>2022-06-27T07:17:14+02:00</time>
      </trkpt>
      <trkpt lat="44.97324" lon="2.3469">
        <ele>679</ele>
        <time>2022-06-27T07:17:28+02:00</time>
      </trkpt>
      <trkpt lat="44.97314" lon="2.34694">
        <ele>677</ele>
        <time>2022-06-27T07:17:41+02:00</time>
      </trkpt>
      <trkpt lat="44.97274" lon="2.3464">
        <ele>675</ele>
        <time>2022-06-27T07:18:44+02:00</time>
      </trkpt>
      <trkpt lat="44.97238" lon="2.34627">
        <ele>672</ele>
        <time>2022-06-27T07:19:26+02:00</time>
      </trkpt>
      <trkpt lat="44.97205" lon="2.34623">
        <ele>668</ele>
        <time>2022-06-27T07:20:04+02:00</time>
      </trkpt>
      <trkpt lat="44.97171" lon="2.34605">
        <ele>666</ele>
        <time>2022-06-27T07:20:46+02:00</time>
      </trkpt>
      <trkpt lat="44.97157" lon="2.34603">
        <ele>663</ele>
        <time>2022-06-27T07:21:02+02:00</time>
      </trkpt>
      <trkpt lat="44.97118" lon="2.34611">
        <ele>655</ele>
        <time>2022-06-27T07:21:47+02:00</time>
      </trkpt>
      <trkpt lat="44.971" lon="2.3461">
        <ele>651</ele>
        <time>2022-06-27T07:22:08+02:00</time>
      </trkpt>
      <trkpt lat="44.97061" lon="2.34599">
        <ele>645</ele>
        <time>2022-06-27T07:22:53+02:00</time>
      </trkpt>
      <trkpt lat="44.97033" lon="2.34591">
        <ele>641</ele>
        <time>2022-06-27T07:23:26+02:00</time>
      </trkpt>
      <trkpt lat="44.97014" lon="2.34596">
        <ele>637</ele>
        <time>2022-06-27T07:23:48+02:00</time>
      </trkpt>
      <trkpt lat="44.97015" lon="2.34631">
        <ele>635</ele>
        <time>2022-06-27T07:24:16+02:00</time>
      </trkpt>
      <trkpt lat="44.96961" lon="2.34677">
        <ele>625</ele>
        <time>2022-06-27T07:25:28+02:00</time>
      </trkpt>
      <trkpt lat="44.96941" lon="2.34637">
        <ele>623</ele>
        <time>2022-06-27T07:26:08+02:00</time>
      </trkpt>
      <trkpt lat="44.96923" lon="2.34614">
        <ele>621</ele>
        <time>2022-06-27T07:26:35+02:00</time>
      </trkpt>
      <trkpt lat="44.96913" lon="2.34581">
        <ele>620</ele>
        <time>2022-06-27T07:27:05+02:00</time>
      </trkpt>
      <trkpt lat="44.96891" lon="2.34561">
        <ele>621</ele>
        <time>2022-06-27T07:27:45+02:00</time>
      </trkpt>
      <trkpt lat="44.96873" lon="2.34555">
        <ele>620</ele>
        <time>2022-06-27T07:28:07+02:00</time>
      </trkpt>
      <trkpt lat="44.96853" lon="2.34558">
        <ele>618</ele>
        <time>2022-06-27T07:28:30+02:00</time>
      </trkpt>
      <trkpt lat="44.96834" lon="2.34545">
        <ele>616</ele>
        <time>2022-06-27T07:28:54+02:00</time>
      </trkpt>
      <trkpt lat="44.96823" lon="2.3452">
        <ele>617</ele>
        <time>2022-06-27T07:29:28+02:00</time>
      </trkpt>
      <trkpt lat="44.96803" lon="2.34494">
        <ele>616</ele>
        <time>2022-06-27T07:30:00+02:00</time>
      </trkpt>
      <trkpt lat="44.96796" lon="2.34457">
        <ele>616</ele>
        <time>2022-06-27T07:30:30+02:00</time>
      </trkpt>
      <trkpt lat="44.96786" lon="2.34413">
        <ele>615</ele>
        <time>2022-06-27T07:31:08+02:00</time>
      </trkpt>
      <trkpt lat="44.9676" lon="2.34402">
        <ele>613</ele>
        <time>2022-06-27T07:31:40+02:00</time>
      </trkpt>
      <trkpt lat="44.96683" lon="2.34369">
        <ele>631</ele>
        <time>2022-06-27T07:36:17+02:00</time>
      </trkpt>
      <trkpt lat="44.96675" lon="2.34367">
        <ele>633</ele>
        <time>2022-06-27T07:36:47+02:00</time>
      </trkpt>
      <trkpt lat="44.96676" lon="2.34429">
        <ele>629</ele>
        <time>2022-06-27T07:37:37+02:00</time>
      </trkpt>
      <trkpt lat="44.96666" lon="2.34467">
        <ele>629</ele>
        <time>2022-06-27T07:38:10+02:00</time>
      </trkpt>
      <trkpt lat="44.96648" lon="2.34526">
        <ele>629</ele>
        <time>2022-06-27T07:39:02+02:00</time>
      </trkpt>
      <trkpt lat="44.96641" lon="2.34559">
        <ele>627</ele>
        <time>2022-06-27T07:39:30+02:00</time>
      </trkpt>
      <trkpt lat="44.96601" lon="2.34533">
        <ele>637</ele>
        <time>2022-06-27T07:42:04+02:00</time>
      </trkpt>
      <trkpt lat="44.96579" lon="2.34518">
        <ele>642</ele>
        <time>2022-06-27T07:43:23+02:00</time>
      </trkpt>
      <trkpt lat="44.96569" lon="2.34504">
        <ele>645</ele>
        <time>2022-06-27T07:44:10+02:00</time>
      </trkpt>
      <trkpt lat="44.96585" lon="2.34414">
        <ele>653</ele>
        <time>2022-06-27T07:46:47+02:00</time>
      </trkpt>
      <trkpt lat="44.96594" lon="2.34376">
        <ele>656</ele>
        <time>2022-06-27T07:47:50+02:00</time>
      </trkpt>
      <trkpt lat="44.96595" lon="2.343">
        <ele>664</ele>
        <time>2022-06-27T07:50:13+02:00</time>
      </trkpt>
      <trkpt lat="44.96589" lon="2.34231">
        <ele>667</ele>
        <time>2022-06-27T07:51:41+02:00</time>
      </trkpt>
      <trkpt lat="44.96572" lon="2.34203">
        <ele>667</ele>
        <time>2022-06-27T07:52:11+02:00</time>
      </trkpt>
      <trkpt lat="44.96544" lon="2.34188">
        <ele>668</ele>
        <time>2022-06-27T07:52:55+02:00</time>
      </trkpt>
      <trkpt lat="44.96503" lon="2.34187">
        <ele>673</ele>
        <time>2022-06-27T07:54:33+02:00</time>
      </trkpt>
      <trkpt lat="44.96473" lon="2.34187">
        <ele>675</ele>
        <time>2022-06-27T07:55:29+02:00</time>
      </trkpt>
      <trkpt lat="44.96436" lon="2.34176">
        <ele>675</ele>
        <time>2022-06-27T07:56:12+02:00</time>
      </trkpt>
      <trkpt lat="44.96387" lon="2.34146">
        <ele>675</ele>
        <time>2022-06-27T07:57:14+02:00</time>
      </trkpt>
      <trkpt lat="44.96346" lon="2.34118">
        <ele>677</ele>
        <time>2022-06-27T07:58:27+02:00</time>
      </trkpt>
      <trkpt lat="44.96325" lon="2.34115">
        <ele>679</ele>
        <time>2022-06-27T07:59:11+02:00</time>
      </trkpt>
      <trkpt lat="44.96304" lon="2.34124">
        <ele>682</ele>
        <time>2022-06-27T08:00:07+02:00</time>
      </trkpt>
      <trkpt lat="44.96295" lon="2.34142">
        <ele>684</ele>
        <time>2022-06-27T08:00:46+02:00</time>
      </trkpt>
      <trkpt lat="44.96265" lon="2.34183">
        <ele>689</ele>
        <time>2022-06-27T08:02:25+02:00</time>
      </trkpt>
      <trkpt lat="44.96244" lon="2.34226">
        <ele>690</ele>
        <time>2022-06-27T08:03:18+02:00</time>
      </trkpt>
      <trkpt lat="44.96221" lon="2.34298">
        <ele>690</ele>
        <time>2022-06-27T08:04:22+02:00</time>
      </trkpt>
      <trkpt lat="44.96202" lon="2.34341">
        <ele>689</ele>
        <time>2022-06-27T08:05:03+02:00</time>
      </trkpt>
      <trkpt lat="44.96188" lon="2.34434">
        <ele>689</ele>
        <time>2022-06-27T08:06:20+02:00</time>
      </trkpt>
      <trkpt lat="44.96177" lon="2.34467">
        <ele>689</ele>
        <time>2022-06-27T08:06:49+02:00</time>
      </trkpt>
      <trkpt lat="44.9617" lon="2.34478">
        <ele>689</ele>
        <time>2022-06-27T08:07:01+02:00</time>
      </trkpt>
      <trkpt lat="44.96171" lon="2.34497">
        <ele>689</ele>
        <time>2022-06-27T08:07:16+02:00</time>
      </trkpt>
      <trkpt lat="44.9614" lon="2.34528">
        <ele>687</ele>
        <time>2022-06-27T08:08:00+02:00</time>
      </trkpt>
      <trkpt lat="44.96087" lon="2.34558">
        <ele>686</ele>
        <time>2022-06-27T08:09:06+02:00</time>
      </trkpt>
      <trkpt lat="44.9607" lon="2.34587">
        <ele>689</ele>
        <time>2022-06-27T08:10:07+02:00</time>
      </trkpt>
      <trkpt lat="44.96023" lon="2.3467">
        <ele>692</ele>
        <time>2022-06-27T08:12:04+02:00</time>
      </trkpt>
      <trkpt lat="44.96007" lon="2.3472">
        <ele>693</ele>
        <time>2022-06-27T08:12:59+02:00</time>
      </trkpt>
      <trkpt lat="44.95987" lon="2.34776">
        <ele>692</ele>
        <time>2022-06-27T08:13:50+02:00</time>
      </trkpt>
      <trkpt lat="44.95922" lon="2.34908">
        <ele>688</ele>
        <time>2022-06-27T08:16:00+02:00</time>
      </trkpt>
      <trkpt lat="44.95939" lon="2.35039">
        <ele>687</ele>
        <time>2022-06-27T08:17:49+02:00</time>
      </trkpt>
      <trkpt lat="44.95935" lon="2.35089">
        <ele>686</ele>
        <time>2022-06-27T08:18:29+02:00</time>
      </trkpt>
      <trkpt lat="44.95925" lon="2.35172">
        <ele>686</ele>
        <time>2022-06-27T08:19:38+02:00</time>
      </trkpt>
      <trkpt lat="44.95916" lon="2.35254">
        <ele>687</ele>
        <time>2022-06-27T08:20:55+02:00</time>
      </trkpt>
      <trkpt lat="44.95919" lon="2.35316">
        <ele>690</ele>
        <time>2022-06-27T08:22:17+02:00</time>
      </trkpt>
      <trkpt lat="44.95886" lon="2.35316">
        <ele>692</ele>
        <time>2022-06-27T08:23:15+02:00</time>
      </trkpt>
    </trkseg>
  </trk>
</gpx>